Observation data for Guadalupe Mtns Park on 09/12/2017      Previous  Date  Next       Current Mesonet Observations  Soil Data  Daily Summary Page  Observations in Plain Language
KGU1 120500Z 30004KT 18/04 A303 RMK A01 T01830039  RH  039%=      5-min Rain = 0
KGU1 120501Z 30004KT 18/04 A303 RMK A01 T01830039  RH  039%=      5-min Rain = 0
KGU1 120502Z 30004KT 18/04 A303 RMK A01 T01820039  RH  039%=      5-min Rain = 0
KGU1 120503Z 30005KT 18/04 A303 RMK A01 T01820039  RH  039%=      5-min Rain = 0
KGU1 120504Z 30006KT 18/04 A303 RMK A01 T01820038  RH  039%=      5-min Rain = 0
KGU1 120505Z 30006KT 18/04 A3029 RMK A01 T01830037  RH  038%=      5-min Rain = 0
KGU1 120506Z 30006KT 18/04 A3029 RMK A01 T01830037  RH  038%=      5-min Rain = 0
KGU1 120507Z 30006KT 18/04 A3029 RMK A01 T01830036  RH  038%=      5-min Rain = 0
KGU1 120508Z 31005KT 18/04 A3029 RMK A01 T01830036  RH  038%=      5-min Rain = 0
KGU1 120509Z 32004KT 18/04 A3029 RMK A01 T01820037  RH  039%=      5-min Rain = 0
KGU1 120510Z 31005KT 18/04 A3029 RMK A01 T01820038  RH  039%=      5-min Rain = 0
KGU1 120511Z 31005KT 18/04 A3029 RMK A01 T01810038  RH  039%=      5-min Rain = 0
KGU1 120512Z 31005KT 18/04 A3029 RMK A01 T01810038  RH  039%=      5-min Rain = 0
KGU1 120513Z 31004KT 18/04 A3029 RMK A01 T01800037  RH  039%=      5-min Rain = 0
KGU1 120514Z 30004KT 18/04 A3029 RMK A01 T01800038  RH  039%=      5-min Rain = 0
KGU1 120515Z 31004KT 18/04 A3029 RMK A01 T01790038  RH  040%=      5-min Rain = 0
KGU1 120516Z 30005KT 18/04 A3029 RMK A01 T01780039  RH  040%=      5-min Rain = 0
KGU1 120517Z 30005KT 18/04 A3029 RMK A01 T01780038  RH  040%=      5-min Rain = 0
KGU1 120518Z 30004KT 18/04 A3029 RMK A01 T01780037  RH  040%=      5-min Rain = 0
KGU1 120519Z 30005KT 18/04 A3029 RMK A01 T01780037  RH  040%=      5-min Rain = 0
KGU1 120520Z 31004KT 18/04 A3029 RMK A01 T01770037  RH  040%=      5-min Rain = 0
KGU1 120521Z 31004KT 18/04 A3029 RMK A01 T01770037  RH  040%=      5-min Rain = 0
KGU1 120522Z 31005KT 18/04 A3029 RMK A01 T01780037  RH  040%=      5-min Rain = 0
KGU1 120523Z 31005KT 18/04 A3029 RMK A01 T01780038  RH  040%=      5-min Rain = 0
KGU1 120524Z 31005KT 18/04 A3029 RMK A01 T01770039  RH  040%=      5-min Rain = 0
KGU1 120525Z 31005KT 18/04 A3029 RMK A01 T01770040  RH  040%=      5-min Rain = 0
KGU1 120526Z 30005KT 18/04 A3029 RMK A01 T01770039  RH  040%=      5-min Rain = 0
KGU1 120527Z 31005KT 18/04 A3029 RMK A01 T01780037  RH  040%=      5-min Rain = 0
KGU1 120528Z 30005KT 18/04 A3029 RMK A01 T01780037  RH  040%=      5-min Rain = 0
KGU1 120529Z 30005KT 18/04 A3029 RMK A01 T01780036  RH  039%=      5-min Rain = 0
KGU1 120530Z 30006KT 18/04 A3029 RMK A01 T01780036  RH  039%=      5-min Rain = 0
KGU1 120531Z 30006KT 18/04 A3029 RMK A01 T01780036  RH  039%=      5-min Rain = 0
KGU1 120532Z 30006KT 18/04 A3029 RMK A01 T01780035  RH  039%=      5-min Rain = 0
KGU1 120533Z 30007KT 18/04 A3029 RMK A01 T01780035  RH  039%=      5-min Rain = 0
KGU1 120534Z 30008KT 18/03 A3029 RMK A01 T01790033  RH  038%=      5-min Rain = 0
KGU1 120535Z 30007KT 18/03 A3029 RMK A01 T01780033  RH  038%=      5-min Rain = 0
KGU1 120536Z 30007KT 18/03 A3029 RMK A01 T01790032  RH  038%=      5-min Rain = 0
KGU1 120537Z 30006KT 18/03 A3029 RMK A01 T01790032  RH  038%=      5-min Rain = 0
KGU1 120538Z 30006KT 18/03 A3029 RMK A01 T01810031  RH  037%=      5-min Rain = 0
KGU1 120539Z 30007KT 18/03 A3029 RMK A01 T01810031  RH  037%=      5-min Rain = 0
KGU1 120540Z 30007KT 18/03 A3029 RMK A01 T01810031  RH  037%=      5-min Rain = 0
KGU1 120541Z 30007KT 18/03 A3029 RMK A01 T01820030  RH  037%=      5-min Rain = 0
KGU1 120542Z 30007KT 18/03 A3029 RMK A01 T01820028  RH  036%=      5-min Rain = 0
KGU1 120543Z 31005KT 18/03 A3029 RMK A01 T01830027  RH  036%=      5-min Rain = 0
KGU1 120544Z 30006KT 18/03 A3029 RMK A01 T01830027  RH  036%=      5-min Rain = 0
KGU1 120545Z 30008KT 18/03 A3029 RMK A01 T01830026  RH  035%=      5-min Rain = 0
KGU1 120546Z 30009KT 18/03 A3029 RMK A01 T01840025  RH  035%=      5-min Rain = 0
KGU1 120547Z 30007KT 19/02 A3029 RMK A01 T01850024  RH  035%=      5-min Rain = 0
KGU1 120548Z 29005KT 19/02 A3029 RMK A01 T01860024  RH  034%=      5-min Rain = 0
KGU1 120549Z 30004KT 19/03 A3029 RMK A01 T01870026  RH  035%=      5-min Rain = 0
KGU1 120550Z 31004KT 19/03 A3029 RMK A01 T01880026  RH  034%=      5-min Rain = 0
KGU1 120551Z 30006KT 19/03 A3029 RMK A01 T01880025  RH  034%=      5-min Rain = 0
KGU1 120552Z 29007KT 19/03 A3029 RMK A01 T01870025  RH  034%=      5-min Rain = 0
KGU1 120553Z 30005KT 19/03 A3029 RMK A01 T01860026  RH  035%=      5-min Rain = 0
KGU1 120554Z 30005KT 19/03 A3028 RMK A01 T01860027  RH  035%=      5-min Rain = 0
KGU1 120555Z 30006KT 19/03 A3028 RMK A01 T01860028  RH  035%=      5-min Rain = 0
KGU1 120556Z 30006KT 19/03 A3028 RMK A01 T01850028  RH  035%=      5-min Rain = 0
KGU1 120557Z 30006KT 19/03 A3028 RMK A01 T01850027  RH  035%=      5-min Rain = 0
KGU1 120558Z 30006KT 19/03 A3028 RMK A01 T01850025  RH  035%=      5-min Rain = 0
KGU1 120559Z 30005KT 19/03 A3028 RMK A01 T01870026  RH  035%=      5-min Rain = 0
KGU1 120600Z 30005KT 19/03 A3028 RMK A01 T01870027  RH  035%=      5-min Rain = 0
KGU1 120601Z 30005KT 19/03 A3028 RMK A01 T01870027  RH  035%=      5-min Rain = 0
KGU1 120602Z 30005KT 19/03 A3028 RMK A01 T01870028  RH  035%=      5-min Rain = 0
KGU1 120603Z 30006KT 19/03 A3028 RMK A01 T01870028  RH  035%=      5-min Rain = 0
KGU1 120604Z 29005KT 19/03 A3028 RMK A01 T01870026  RH  035%=      5-min Rain = 0
KGU1 120605Z 30005KT 19/03 A3028 RMK A01 T01870025  RH  034%=      5-min Rain = 0
KGU1 120606Z 30005KT 19/03 A3028 RMK A01 T01860025  RH  035%=      5-min Rain = 0
KGU1 120607Z 30005KT 19/03 A3028 RMK A01 T01850027  RH  035%=      5-min Rain = 0
KGU1 120608Z 30006KT 18/03 A3028 RMK A01 T01840028  RH  036%=      5-min Rain = 0
KGU1 120609Z 29006KT 18/03 A3028 RMK A01 T01830027  RH  036%=      5-min Rain = 0
KGU1 120610Z 29005KT 18/03 A3028 RMK A01 T01840028  RH  036%=      5-min Rain = 0
KGU1 120611Z 29005KT 18/03 A3028 RMK A01 T01840027  RH  036%=      5-min Rain = 0
KGU1 120612Z 30006KT 18/03 A3028 RMK A01 T01840027  RH  036%=      5-min Rain = 0
KGU1 120613Z 29007KT 18/03 A3028 RMK A01 T01840027  RH  036%=      5-min Rain = 0
KGU1 120614Z 30006KT 18/03 A3028 RMK A01 T01840027  RH  035%=      5-min Rain = 0
KGU1 120615Z 30006KT 19/03 A3028 RMK A01 T01850027  RH  035%=      5-min Rain = 0
KGU1 120616Z 30006KT 19/03 A3028 RMK A01 T01850025  RH  035%=      5-min Rain = 0
KGU1 120617Z 29006KT 19/02 A3028 RMK A01 T01850024  RH  035%=      5-min Rain = 0
KGU1 120618Z 30007KT 18/03 A3028 RMK A01 T01840025  RH  035%=      5-min Rain = 0
KGU1 120619Z 30006KT 18/03 A3028 RMK A01 T01830026  RH  035%=      5-min Rain = 0
KGU1 120620Z 30007KT 18/03 A3028 RMK A01 T01830027  RH  036%=      5-min Rain = 0
KGU1 120621Z 29006KT 18/03 A3028 RMK A01 T01820027  RH  036%=      5-min Rain = 0
KGU1 120622Z 30006KT 18/03 A3028 RMK A01 T01830028  RH  036%=      5-min Rain = 0
KGU1 120623Z 30007KT 18/03 A3028 RMK A01 T01830026  RH  035%=      5-min Rain = 0
KGU1 120624Z 30006KT 18/03 A3028 RMK A01 T01830026  RH  035%=      5-min Rain = 0
KGU1 120625Z 30006KT 18/03 A3028 RMK A01 T01830026  RH  036%=      5-min Rain = 0
KGU1 120626Z 30005KT 18/03 A3028 RMK A01 T01830026  RH  036%=      5-min Rain = 0
KGU1 120627Z 30005KT 18/03 A3028 RMK A01 T01810027  RH  036%=      5-min Rain = 0
KGU1 120628Z 30006KT 18/03 A3028 RMK A01 T01810028  RH  036%=      5-min Rain = 0
KGU1 120629Z 30006KT 18/03 A3028 RMK A01 T01800029  RH  037%=      5-min Rain = 0
KGU1 120630Z 30006KT 18/03 A3028 RMK A01 T01800029  RH  037%=      5-min Rain = 0
KGU1 120631Z 30006KT 18/03 A3028 RMK A01 T01790027  RH  037%=      5-min Rain = 0
KGU1 120632Z 30006KT 18/03 A3028 RMK A01 T01800025  RH  036%=      5-min Rain = 0
KGU1 120633Z 30006KT 18/03 A3028 RMK A01 T01810025  RH  036%=      5-min Rain = 0
KGU1 120634Z 30007KT 18/03 A3028 RMK A01 T01800026  RH  036%=      5-min Rain = 0
KGU1 120635Z 30007KT 18/03 A3028 RMK A01 T01800026  RH  036%=      5-min Rain = 0
KGU1 120636Z 30007KT 18/03 A3028 RMK A01 T01800026  RH  036%=      5-min Rain = 0
KGU1 120637Z 30006KT 18/03 A3028 RMK A01 T01800026  RH  036%=      5-min Rain = 0
KGU1 120638Z 30006KT 18/03 A3028 RMK A01 T01800027  RH  036%=      5-min Rain = 0
KGU1 120639Z 30006KT 18/03 A3028 RMK A01 T01790027  RH  037%=      5-min Rain = 0
KGU1 120640Z 30006KT 18/03 A3028 RMK A01 T01780027  RH  037%=      5-min Rain = 0
KGU1 120641Z 30007KT 18/03 A3028 RMK A01 T01780028  RH  037%=      5-min Rain = 0
KGU1 120642Z 30007KT 18/03 A3028 RMK A01 T01770027  RH  037%=      5-min Rain = 0
KGU1 120643Z 30007KT 18/03 A3028 RMK A01 T01760028  RH  038%=      5-min Rain = 0
KGU1 120644Z 30006KT 18/03 A3028 RMK A01 T01760027  RH  037%=      5-min Rain = 0
KGU1 120645Z 30006KT 18/03 A3028 RMK A01 T01760028  RH  037%=      5-min Rain = 0
KGU1 120646Z 30006KT 18/03 A3028 RMK A01 T01760028  RH  038%=      5-min Rain = 0
KGU1 120647Z 30006KT 18/03 A3028 RMK A01 T01760028  RH  037%=      5-min Rain = 0
KGU1 120648Z 30007KT 18/03 A3028 RMK A01 T01770027  RH  037%=      5-min Rain = 0
KGU1 120649Z 30007KT 18/03 A3027 RMK A01 T01770027  RH  037%=      5-min Rain = 0
KGU1 120650Z 30007KT 18/03 A3027 RMK A01 T01770027  RH  037%=      5-min Rain = 0
KGU1 120651Z 30007KT 18/03 A3027 RMK A01 T01770027  RH  037%=      5-min Rain = 0
KGU1 120652Z 30006KT 18/03 A3027 RMK A01 T01770026  RH  037%=      5-min Rain = 0
KGU1 120653Z 30006KT 18/03 A3027 RMK A01 T01770027  RH  037%=      5-min Rain = 0
KGU1 120654Z 31005KT 18/03 A3027 RMK A01 T01770027  RH  037%=      5-min Rain = 0
KGU1 120655Z 31005KT 18/03 A3028 RMK A01 T01770028  RH  037%=      5-min Rain = 0
KGU1 120656Z 31005KT 18/03 A3028 RMK A01 T01760028  RH  038%=      5-min Rain = 0
KGU1 120657Z 31005KT 18/03 A3028 RMK A01 T01760028  RH  038%=      5-min Rain = 0
KGU1 120658Z 31005KT 18/03 A3028 RMK A01 T01750029  RH  038%=      5-min Rain = 0
KGU1 120659Z 31005KT 17/03 A3028 RMK A01 T01730030  RH  039%=      5-min Rain = 0
KGU1 120700Z 30005KT 17/03 A3028 RMK A01 T01720031  RH  039%=      5-min Rain = 0
KGU1 120701Z 30006KT 17/03 A3028 RMK A01 T01710031  RH  040%=      5-min Rain = 0
KGU1 120702Z 30006KT 17/03 A3028 RMK A01 T01700031  RH  040%=      5-min Rain = 0
KGU1 120703Z 30006KT 17/03 A3028 RMK A01 T01690030  RH  040%=      5-min Rain = 0
KGU1 120704Z 30007KT 17/03 A3028 RMK A01 T01700028  RH  039%=      5-min Rain = 0
KGU1 120705Z 31006KT 17/03 A3028 RMK A01 T01710027  RH  039%=      5-min Rain = 0
KGU1 120706Z 30006KT 17/03 A3027 RMK A01 T01710028  RH  039%=      5-min Rain = 0
KGU1 120707Z 30006KT 17/03 A3027 RMK A01 T01710027  RH  039%=      5-min Rain = 0
KGU1 120708Z 30006KT 17/03 A3027 RMK A01 T01710027  RH  039%=      5-min Rain = 0
KGU1 120709Z 31006KT 17/03 A3027 RMK A01 T01710028  RH  039%=      5-min Rain = 0
KGU1 120710Z 30006KT 17/03 A3027 RMK A01 T01700029  RH  039%=      5-min Rain = 0
KGU1 120711Z 30007KT 17/03 A3027 RMK A01 T01690029  RH  040%=      5-min Rain = 0
KGU1 120712Z 30007KT 17/03 A3027 RMK A01 T01690029  RH  040%=      5-min Rain = 0
KGU1 120713Z 30007KT 17/03 A3027 RMK A01 T01690029  RH  040%=      5-min Rain = 0
KGU1 120714Z 30007KT 17/03 A3027 RMK A01 T01690029  RH  039%=      5-min Rain = 0
KGU1 120715Z 31007KT 17/03 A3027 RMK A01 T01690028  RH  039%=      5-min Rain = 0
KGU1 120716Z 30007KT 17/03 A3027 RMK A01 T01700028  RH  039%=      5-min Rain = 0
KGU1 120717Z 30007KT 17/03 A3027 RMK A01 T01710027  RH  039%=      5-min Rain = 0
KGU1 120718Z 30007KT 17/03 A3027 RMK A01 T01710027  RH  039%=      5-min Rain = 0
KGU1 120719Z 30007KT 17/03 A3027 RMK A01 T01720027  RH  038%=      5-min Rain = 0
KGU1 120720Z 30008KT 17/03 A3027 RMK A01 T01720027  RH  038%=      5-min Rain = 0
KGU1 120721Z 30007KT 17/03 A3027 RMK A01 T01720028  RH  038%=      5-min Rain = 0
KGU1 120722Z 31008KT 17/03 A3027 RMK A01 T01730027  RH  038%=      5-min Rain = 0
KGU1 120723Z 30008KT 18/03 A3027 RMK A01 T01750026  RH  037%=      5-min Rain = 0
KGU1 120724Z 30008KT 18/03 A3027 RMK A01 T01760026  RH  037%=      5-min Rain = 0
KGU1 120725Z 30008KT 18/03 A3027 RMK A01 T01760027  RH  037%=      5-min Rain = 0
KGU1 120726Z 30007KT 18/03 A3027 RMK A01 T01760027  RH  037%=      5-min Rain = 0
KGU1 120727Z 30007KT 18/03 A3027 RMK A01 T01760026  RH  037%=      5-min Rain = 0
KGU1 120728Z 30007KT 18/03 A3027 RMK A01 T01770026  RH  037%=      5-min Rain = 0
KGU1 120729Z 30006KT 18/03 A3027 RMK A01 T01770026  RH  037%=      5-min Rain = 0
KGU1 120730Z 30006KT 18/03 A3027 RMK A01 T01760027  RH  037%=      5-min Rain = 0
KGU1 120731Z 30006KT 18/03 A3027 RMK A01 T01770027  RH  037%=      5-min Rain = 0
KGU1 120732Z 30006KT 18/03 A3027 RMK A01 T01770027  RH  037%=      5-min Rain = 0
KGU1 120733Z 30006KT 18/03 A3027 RMK A01 T01780028  RH  037%=      5-min Rain = 0
KGU1 120734Z 30006KT 18/03 A3027 RMK A01 T01790027  RH  037%=      5-min Rain = 0
KGU1 120735Z 30007KT 18/03 A3027 RMK A01 T01800028  RH  037%=      5-min Rain = 0
KGU1 120736Z 30006KT 18/03 A3027 RMK A01 T01810027  RH  036%=      5-min Rain = 0
KGU1 120737Z 29008KT 18/03 A3026 RMK A01 T01810027  RH  036%=      5-min Rain = 0
KGU1 120738Z 29007KT 18/03 A3026 RMK A01 T01810025  RH  036%=      5-min Rain = 0
KGU1 120739Z 30007KT 18/03 A3026 RMK A01 T01800027  RH  036%=      5-min Rain = 0
KGU1 120740Z 30007KT 18/03 A3026 RMK A01 T01800028  RH  037%=      5-min Rain = 0
KGU1 120741Z 29008KT 18/03 A3026 RMK A01 T01800027  RH  036%=      5-min Rain = 0
KGU1 120742Z 30007KT 18/03 A3026 RMK A01 T01810026  RH  036%=      5-min Rain = 0
KGU1 120743Z 30006KT 18/03 A3026 RMK A01 T01800027  RH  036%=      5-min Rain = 0
KGU1 120744Z 30007KT 18/03 A3026 RMK A01 T01790027  RH  037%=      5-min Rain = 0
KGU1 120745Z 29006KT 18/03 A3026 RMK A01 T01780027  RH  037%=      5-min Rain = 0
KGU1 120746Z 29007KT 18/03 A3026 RMK A01 T01780027  RH  037%=      5-min Rain = 0
KGU1 120747Z 29008KT 18/03 A3026 RMK A01 T01780027  RH  037%=      5-min Rain = 0
KGU1 120748Z 29008KT 18/03 A3026 RMK A01 T01790026  RH  036%=      5-min Rain = 0
KGU1 120749Z 29008KT 18/03 A3026 RMK A01 T01800026  RH  036%=      5-min Rain = 0
KGU1 120750Z 30007KT 18/03 A3026 RMK A01 T01800025  RH  036%=      5-min Rain = 0
KGU1 120751Z 29009KT 18/03 A3026 RMK A01 T01800025  RH  036%=      5-min Rain = 0
KGU1 120752Z 29008KT 18/03 A3026 RMK A01 T01810025  RH  036%=      5-min Rain = 0
KGU1 120753Z 30009KT 18/03 A3026 RMK A01 T01810025  RH  036%=      5-min Rain = 0
KGU1 120754Z 30009KT 18/03 A3026 RMK A01 T01800026  RH  036%=      5-min Rain = 0
KGU1 120755Z 30008KT 18/03 A3026 RMK A01 T01800026  RH  036%=      5-min Rain = 0
KGU1 120756Z 30007KT 18/03 A3026 RMK A01 T01800026  RH  036%=      5-min Rain = 0
KGU1 120757Z 31008KT 18/03 A3026 RMK A01 T01790026  RH  036%=      5-min Rain = 0
KGU1 120758Z 30007KT 18/03 A3026 RMK A01 T01780026  RH  037%=      5-min Rain = 0
KGU1 120759Z 30007KT 18/03 A3026 RMK A01 T01780026  RH  037%=      5-min Rain = 0
KGU1 120800Z 30007KT 18/03 A3026 RMK A01 T01780026  RH  036%=      5-min Rain = 0
KGU1 120801Z 30007KT 18/03 A3026 RMK A01 T01780026  RH  036%=      5-min Rain = 0
KGU1 120802Z 30007KT 18/03 A3026 RMK A01 T01780026  RH  037%=      5-min Rain = 0
KGU1 120803Z 30007KT 18/03 A3026 RMK A01 T01780026  RH  037%=      5-min Rain = 0
KGU1 120804Z 30008KT 18/03 A3026 RMK A01 T01770026  RH  037%=      5-min Rain = 0
KGU1 120805Z 30007KT 18/03 A3026 RMK A01 T01770026  RH  037%=      5-min Rain = 0
KGU1 120806Z 30008KT 18/03 A3026 RMK A01 T01770026  RH  037%=      5-min Rain = 0
KGU1 120807Z 30007KT 18/03 A3026 RMK A01 T01770027  RH  037%=      5-min Rain = 0
KGU1 120808Z 30007KT 18/03 A3026 RMK A01 T01770026  RH  037%=      5-min Rain = 0
KGU1 120809Z 30007KT 18/03 A3026 RMK A01 T01780026  RH  037%=      5-min Rain = 0
KGU1 120810Z 30007KT 18/03 A3026 RMK A01 T01780025  RH  036%=      5-min Rain = 0
KGU1 120811Z 30008KT 18/03 A3026 RMK A01 T01780025  RH  036%=      5-min Rain = 0
KGU1 120812Z 30007KT 18/03 A3026 RMK A01 T01780025  RH  036%=      5-min Rain = 0
KGU1 120813Z 30006KT 18/03 A3026 RMK A01 T01790025  RH  036%=      5-min Rain = 0
KGU1 120814Z 30006KT 18/02 A3026 RMK A01 T01790024  RH  036%=      5-min Rain = 0
KGU1 120815Z 30006KT 18/03 A3026 RMK A01 T01790025  RH  036%=      5-min Rain = 0
KGU1 120816Z 30006KT 18/03 A3026 RMK A01 T01790026  RH  036%=      5-min Rain = 0
KGU1 120817Z 30006KT 18/03 A3026 RMK A01 T01780026  RH  037%=      5-min Rain = 0
KGU1 120818Z 30006KT 18/03 A3026 RMK A01 T01780027  RH  037%=      5-min Rain = 0
KGU1 120819Z 30006KT 18/03 A3026 RMK A01 T01770026  RH  037%=      5-min Rain = 0
KGU1 120820Z 30006KT 18/03 A3026 RMK A01 T01770027  RH  037%=      5-min Rain = 0
KGU1 120821Z 29006KT 18/03 A3026 RMK A01 T01760027  RH  037%=      5-min Rain = 0
KGU1 120822Z 29007KT 18/03 A3026 RMK A01 T01760026  RH  037%=      5-min Rain = 0
KGU1 120823Z 29008KT 18/03 A3026 RMK A01 T01760026  RH  037%=      5-min Rain = 0
KGU1 120824Z 30007KT 18/03 A3026 RMK A01 T01770025  RH  037%=      5-min Rain = 0
KGU1 120825Z 30008KT 18/02 A3026 RMK A01 T01770024  RH  036%=      5-min Rain = 0
KGU1 120826Z 30007KT 18/02 A3026 RMK A01 T01770022  RH  036%=      5-min Rain = 0
KGU1 120827Z 30007KT 18/02 A3026 RMK A01 T01770022  RH  036%=      5-min Rain = 0
KGU1 120828Z 30007KT 18/02 A3026 RMK A01 T01770023  RH  036%=      5-min Rain = 0
KGU1 120829Z 30007KT 18/02 A3026 RMK A01 T01770024  RH  036%=      5-min Rain = 0
KGU1 120830Z 31007KT 18/02 A3026 RMK A01 T01780021  RH  035%=      5-min Rain = 0
KGU1 120831Z 30007KT 18/02 A3026 RMK A01 T01790021  RH  035%=      5-min Rain = 0
KGU1 120832Z 30008KT 18/02 A3026 RMK A01 T01790019  RH  035%=      5-min Rain = 0
KGU1 120833Z 30008KT 18/02 A3026 RMK A01 T01800019  RH  034%=      5-min Rain = 0
KGU1 120834Z 30008KT 18/02 A3026 RMK A01 T01800018  RH  034%=      5-min Rain = 0
KGU1 120835Z 30008KT 18/02 A3026 RMK A01 T01810017  RH  034%=      5-min Rain = 0
KGU1 120836Z 30007KT 18/02 A3026 RMK A01 T01810017  RH  034%=      5-min Rain = 0
KGU1 120837Z 30008KT 18/02 A3026 RMK A01 T01810017  RH  034%=      5-min Rain = 0
KGU1 120838Z 30008KT 18/02 A3026 RMK A01 T01810017  RH  034%=      5-min Rain = 0
KGU1 120839Z 30008KT 18/02 A3026 RMK A01 T01800018  RH  034%=      5-min Rain = 0
KGU1 120840Z 30008KT 18/02 A3026 RMK A01 T01800019  RH  034%=      5-min Rain = 0
KGU1 120841Z 30009KT 18/02 A3026 RMK A01 T01790019  RH  035%=      5-min Rain = 0
KGU1 120842Z 30009KT 18/02 A3026 RMK A01 T01790019  RH  034%=      5-min Rain = 0
KGU1 120843Z 30008KT 18/02 A3026 RMK A01 T01790019  RH  035%=      5-min Rain = 0
KGU1 120844Z 30008KT 18/02 A3026 RMK A01 T01790019  RH  035%=      5-min Rain = 0
KGU1 120845Z 30007KT 18/02 A3026 RMK A01 T01800020  RH  035%=      5-min Rain = 0
KGU1 120846Z 30008KT 18/02 A3026 RMK A01 T01790020  RH  035%=      5-min Rain = 0
KGU1 120847Z 30007KT 18/02 A3025 RMK A01 T01790020  RH  035%=      5-min Rain = 0
KGU1 120848Z 30008KT 18/02 A3025 RMK A01 T01790020  RH  035%=      5-min Rain = 0
KGU1 120849Z 30009KT 18/02 A3025 RMK A01 T01800020  RH  035%=      5-min Rain = 0
KGU1 120850Z 30009KT 18/02 A3025 RMK A01 T01810019  RH  034%=      5-min Rain = 0
KGU1 120851Z 29009KT 18/02 A3025 RMK A01 T01810020  RH  034%=      5-min Rain = 0
KGU1 120852Z 30009KT 18/02 A3025 RMK A01 T01820021  RH  034%=      5-min Rain = 0
KGU1 120853Z 30009KT 18/02 A3025 RMK A01 T01810022  RH  035%=      5-min Rain = 0
KGU1 120854Z 30010KT 18/02 A3025 RMK A01 T01810022  RH  035%=      5-min Rain = 0
KGU1 120855Z 30010KT 18/02 A3025 RMK A01 T01810022  RH  035%=      5-min Rain = 0
KGU1 120856Z 29010KT 18/02 A3025 RMK A01 T01810023  RH  035%=      5-min Rain = 0
KGU1 120857Z 29009KT 18/02 A3025 RMK A01 T01820023  RH  035%=      5-min Rain = 0
KGU1 120858Z 30010KT 18/02 A3025 RMK A01 T01820022  RH  035%=      5-min Rain = 0
KGU1 120859Z 30009KT 18/02 A3025 RMK A01 T01820022  RH  035%=      5-min Rain = 0
KGU1 120900Z 30009KT 18/02 A3025 RMK A01 T01830022  RH  034%=      5-min Rain = 0
KGU1 120901Z 30009KT 18/02 A3025 RMK A01 T01840022  RH  034%=      5-min Rain = 0
KGU1 120902Z 30008KT 18/02 A3025 RMK A01 T01840023  RH  035%=      5-min Rain = 0
KGU1 120903Z 30009KT 18/02 A3025 RMK A01 T01830023  RH  035%=      5-min Rain = 0
KGU1 120904Z 30009KT 18/02 A3025 RMK A01 T01820024  RH  035%=      5-min Rain = 0
KGU1 120905Z 30009KT 18/02 A3025 RMK A01 T01810023  RH  035%=      5-min Rain = 0
KGU1 120906Z 29009KT 18/02 A3025 RMK A01 T01810023  RH  035%=      5-min Rain = 0
KGU1 120907Z 29008KT 18/02 A3025 RMK A01 T01810023  RH  035%=      5-min Rain = 0
KGU1 120908Z 29008KT 18/02 A3025 RMK A01 T01810023  RH  035%=      5-min Rain = 0
KGU1 120909Z 30008KT 18/02 A3025 RMK A01 T01800024  RH  036%=      5-min Rain = 0
KGU1 120910Z 30008KT 18/02 A3024 RMK A01 T01790024  RH  036%=      5-min Rain = 0
KGU1 120911Z 29007KT 18/03 A3024 RMK A01 T01780025  RH  036%=      5-min Rain = 0
KGU1 120912Z 29008KT 18/02 A3024 RMK A01 T01770024  RH  036%=      5-min Rain = 0
KGU1 120913Z 29009KT 18/02 A3024 RMK A01 T01780024  RH  036%=      5-min Rain = 0
KGU1 120914Z 30009KT 18/02 A3024 RMK A01 T01780023  RH  036%=      5-min Rain = 0
KGU1 120915Z 30009KT 18/02 A3024 RMK A01 T01790022  RH  035%=      5-min Rain = 0
KGU1 120916Z 29007KT 18/02 A3024 RMK A01 T01810021  RH  035%=      5-min Rain = 0
KGU1 120917Z 29007KT 18/02 A3024 RMK A01 T01820021  RH  034%=      5-min Rain = 0
KGU1 120918Z 28006KT 18/02 A3024 RMK A01 T01820022  RH  035%=      5-min Rain = 0
KGU1 120919Z 27006KT 18/02 A3024 RMK A01 T01810023  RH  035%=      5-min Rain = 0
KGU1 120920Z 27007KT 18/02 A3024 RMK A01 T01800024  RH  036%=      5-min Rain = 0
KGU1 120921Z 28007KT 18/02 A3024 RMK A01 T01780024  RH  036%=      5-min Rain = 0
KGU1 120922Z 28007KT 18/02 A3024 RMK A01 T01770024  RH  036%=      5-min Rain = 0
KGU1 120923Z 28007KT 18/02 A3024 RMK A01 T01750024  RH  037%=      5-min Rain = 0
KGU1 120924Z 27007KT 18/02 A3024 RMK A01 T01750024  RH  037%=      5-min Rain = 0
KGU1 120925Z 27007KT 18/02 A3024 RMK A01 T01750023  RH  037%=      5-min Rain = 0
KGU1 120926Z 28007KT 18/02 A3024 RMK A01 T01750024  RH  037%=      5-min Rain = 0
KGU1 120927Z 27007KT 18/02 A3024 RMK A01 T01750024  RH  037%=      5-min Rain = 0
KGU1 120928Z 29007KT 17/02 A3024 RMK A01 T01740023  RH  037%=      5-min Rain = 0
KGU1 120929Z 29007KT 17/02 A3024 RMK A01 T01730024  RH  037%=      5-min Rain = 0
KGU1 120930Z 29007KT 17/02 A3024 RMK A01 T01720024  RH  037%=      5-min Rain = 0
KGU1 120931Z 29008KT 17/02 A3024 RMK A01 T01710023  RH  037%=      5-min Rain = 0
KGU1 120932Z 29008KT 17/02 A3024 RMK A01 T01720022  RH  037%=      5-min Rain = 0
KGU1 120933Z 30009KT 17/02 A3024 RMK A01 T01740021  RH  036%=      5-min Rain = 0
KGU1 120934Z 29008KT 18/02 A3024 RMK A01 T01750021  RH  036%=      5-min Rain = 0
KGU1 120935Z 29008KT 18/02 A3024 RMK A01 T01750021  RH  036%=      5-min Rain = 0
KGU1 120936Z 29008KT 18/02 A3024 RMK A01 T01750020  RH  036%=      5-min Rain = 0
KGU1 120937Z 29007KT 18/02 A3024 RMK A01 T01750019  RH  035%=      5-min Rain = 0
KGU1 120938Z 28006KT 18/02 A3024 RMK A01 T01760018  RH  035%=      5-min Rain = 0
KGU1 120939Z 28006KT 18/02 A3024 RMK A01 T01760017  RH  035%=      5-min Rain = 0
KGU1 120940Z 27005KT 18/02 A3024 RMK A01 T01770016  RH  034%=      5-min Rain = 0
KGU1 120941Z 27005KT 18/02 A3024 RMK A01 T01780015  RH  034%=      5-min Rain = 0
KGU1 120942Z 26005KT 18/02 A3024 RMK A01 T01790015  RH  034%=      5-min Rain = 0
KGU1 120943Z 26006KT 18/01 A3024 RMK A01 T01800014  RH  033%=      5-min Rain = 0
KGU1 120944Z 26006KT 18/01 A3024 RMK A01 T01820014  RH  033%=      5-min Rain = 0
KGU1 120945Z 26005KT 18/01 A3024 RMK A01 T01830013  RH  032%=      5-min Rain = 0
KGU1 120946Z 27006KT 19/01 A3024 RMK A01 T01850013  RH  032%=      5-min Rain = 0
KGU1 120947Z 27006KT 19/01 A3024 RMK A01 T01870012  RH  031%=      5-min Rain = 0
KGU1 120948Z 27006KT 19/01 A3024 RMK A01 T01870014  RH  032%=      5-min Rain = 0
KGU1 120949Z 27006KT 19/02 A3024 RMK A01 T01870015  RH  032%=      5-min Rain = 0
KGU1 120950Z 28007KT 19/02 A3024 RMK A01 T01850015  RH  032%=      5-min Rain = 0
KGU1 120951Z 28007KT 18/02 A3024 RMK A01 T01840015  RH  033%=      5-min Rain = 0
KGU1 120952Z 29007KT 18/02 A3024 RMK A01 T01820015  RH  033%=      5-min Rain = 0
KGU1 120953Z 29008KT 18/01 A3024 RMK A01 T01800014  RH  033%=      5-min Rain = 0
KGU1 120954Z 29008KT 18/01 A3024 RMK A01 T01800013  RH  033%=      5-min Rain = 0
KGU1 120955Z 29008KT 18/01 A3024 RMK A01 T01820011  RH  032%=      5-min Rain = 0
KGU1 120956Z 29007KT 18/01 A3024 RMK A01 T01840010  RH  031%=      5-min Rain = 0
KGU1 120957Z 28006KT 19/01 A3024 RMK A01 T01850010  RH  031%=      5-min Rain = 0
KGU1 120958Z 28006KT 19/01 A3024 RMK A01 T01850011  RH  031%=      5-min Rain = 0
KGU1 120959Z 28006KT 19/01 A3023 RMK A01 T01860012  RH  031%=      5-min Rain = 0
KGU1 121000Z 28006KT 18/01 A3023 RMK A01 T01840013  RH  032%=      5-min Rain = 0
KGU1 121001Z 27006KT 18/01 A3023 RMK A01 T01830013  RH  032%=      5-min Rain = 0
KGU1 121002Z 27006KT 18/01 A3023 RMK A01 T01810014  RH  033%=      5-min Rain = 0
KGU1 121003Z 27005KT 18/01 A3023 RMK A01 T01790014  RH  033%=      5-min Rain = 0
KGU1 121004Z 26005KT 18/01 A3023 RMK A01 T01780014  RH  034%=      5-min Rain = 0
KGU1 121005Z 26005KT 18/01 A3023 RMK A01 T01770013  RH  034%=      5-min Rain = 0
KGU1 121006Z 26005KT 18/01 A3023 RMK A01 T01760014  RH  034%=      5-min Rain = 0
KGU1 121007Z 27005KT 18/02 A3023 RMK A01 T01750015  RH  034%=      5-min Rain = 0
KGU1 121008Z 27006KT 17/02 A3023 RMK A01 T01740015  RH  035%=      5-min Rain = 0
KGU1 121009Z 28006KT 17/02 A3023 RMK A01 T01730015  RH  035%=      5-min Rain = 0
KGU1 121010Z 28006KT 17/02 A3023 RMK A01 T01720015  RH  035%=      5-min Rain = 0
KGU1 121011Z 28005KT 17/02 A3024 RMK A01 T01710016  RH  036%=      5-min Rain = 0
KGU1 121012Z 28005KT 17/02 A3024 RMK A01 T01700017  RH  036%=      5-min Rain = 0
KGU1 121013Z 28006KT 17/02 A3024 RMK A01 T01680018  RH  037%=      5-min Rain = 0
KGU1 121014Z 28006KT 17/02 A3024 RMK A01 T01660018  RH  037%=      5-min Rain = 0
KGU1 121015Z 29007KT 17/02 A3024 RMK A01 T01650018  RH  037%=      5-min Rain = 0
KGU1 121016Z 29007KT 17/02 A3024 RMK A01 T01650017  RH  037%=      5-min Rain = 0
KGU1 121017Z 28006KT 17/02 A3024 RMK A01 T01650017  RH  037%=      5-min Rain = 0
KGU1 121018Z 29006KT 17/02 A3024 RMK A01 T01650018  RH  038%=      5-min Rain = 0
KGU1 121019Z 28006KT 17/02 A3024 RMK A01 T01650018  RH  038%=      5-min Rain = 0
KGU1 121020Z 28006KT 16/02 A3023 RMK A01 T01640018  RH  038%=      5-min Rain = 0
KGU1 121021Z 28007KT 16/02 A3023 RMK A01 T01640018  RH  038%=      5-min Rain = 0
KGU1 121022Z 29007KT 17/02 A3023 RMK A01 T01650017  RH  037%=      5-min Rain = 0
KGU1 121023Z 29006KT 17/02 A3023 RMK A01 T01660017  RH  037%=      5-min Rain = 0
KGU1 121024Z 29006KT 17/02 A3023 RMK A01 T01670017  RH  037%=      5-min Rain = 0
KGU1 121025Z 29007KT 17/02 A3023 RMK A01 T01670016  RH  037%=      5-min Rain = 0
KGU1 121026Z 29006KT 17/02 A3023 RMK A01 T01680017  RH  037%=      5-min Rain = 0
KGU1 121027Z 29008KT 17/02 A3023 RMK A01 T01690017  RH  036%=      5-min Rain = 0
KGU1 121028Z 28007KT 17/02 A3023 RMK A01 T01690018  RH  036%=      5-min Rain = 0
KGU1 121029Z 28005KT 17/02 A3023 RMK A01 T01690018  RH  037%=      5-min Rain = 0
KGU1 121030Z 28005KT 17/02 A3023 RMK A01 T01680019  RH  037%=      5-min Rain = 0
KGU1 121031Z 29008KT 17/02 A3023 RMK A01 T01670019  RH  037%=      5-min Rain = 0
KGU1 121032Z 29008KT 17/02 A3023 RMK A01 T01680018  RH  037%=      5-min Rain = 0
KGU1 121033Z 29009KT 17/02 A3023 RMK A01 T01700018  RH  036%=      5-min Rain = 0
KGU1 121034Z 29009KT 17/02 A3023 RMK A01 T01720017  RH  036%=      5-min Rain = 0
KGU1 121035Z 29008KT 17/02 A3023 RMK A01 T01730017  RH  035%=      5-min Rain = 0
KGU1 121036Z 28007KT 17/02 A3023 RMK A01 T01730017  RH  035%=      5-min Rain = 0
KGU1 121037Z 29008KT 17/02 A3023 RMK A01 T01730017  RH  035%=      5-min Rain = 0
KGU1 121038Z 28007KT 17/02 A3023 RMK A01 T01740017  RH  035%=      5-min Rain = 0
KGU1 121039Z 28007KT 17/02 A3024 RMK A01 T01740017  RH  035%=      5-min Rain = 0
KGU1 121040Z 28007KT 17/02 A3024 RMK A01 T01740017  RH  035%=      5-min Rain = 0
KGU1 121041Z 28007KT 17/02 A3024 RMK A01 T01730017  RH  035%=      5-min Rain = 0
KGU1 121042Z 28008KT 17/02 A3024 RMK A01 T01730018  RH  036%=      5-min Rain = 0
KGU1 121043Z 28007KT 17/02 A3023 RMK A01 T01730018  RH  036%=      5-min Rain = 0
KGU1 121044Z 28007KT 17/02 A3023 RMK A01 T01730018  RH  036%=      5-min Rain = 0
KGU1 121045Z 28007KT 17/02 A3023 RMK A01 T01730019  RH  036%=      5-min Rain = 0
KGU1 121046Z 28008KT 17/02 A3023 RMK A01 T01720018  RH  036%=      5-min Rain = 0
KGU1 121047Z 28008KT 17/02 A3023 RMK A01 T01720018  RH  036%=      5-min Rain = 0
KGU1 121048Z 28007KT 17/02 A3023 RMK A01 T01730017  RH  036%=      5-min Rain = 0
KGU1 121049Z 28009KT 17/02 A3023 RMK A01 T01730017  RH  035%=      5-min Rain = 0
KGU1 121050Z 28008KT 17/02 A3023 RMK A01 T01740016  RH  035%=      5-min Rain = 0
KGU1 121051Z 28008KT 17/02 A3023 RMK A01 T01740017  RH  035%=      5-min Rain = 0
KGU1 121052Z 28007KT 17/02 A3023 RMK A01 T01740017  RH  035%=      5-min Rain = 0
KGU1 121053Z 29007KT 17/02 A3023 RMK A01 T01740017  RH  035%=      5-min Rain = 0
KGU1 121054Z 28007KT 17/02 A3023 RMK A01 T01730018  RH  035%=      5-min Rain = 0
KGU1 121055Z 28007KT 17/02 A3023 RMK A01 T01730019  RH  036%=      5-min Rain = 0
KGU1 121056Z 28007KT 17/02 A3023 RMK A01 T01730019  RH  036%=      5-min Rain = 0
KGU1 121057Z 28006KT 17/02 A3023 RMK A01 T01730020  RH  036%=      5-min Rain = 0
KGU1 121058Z 28006KT 17/02 A3023 RMK A01 T01710021  RH  037%=      5-min Rain = 0
KGU1 121059Z 28007KT 17/02 A3023 RMK A01 T01690023  RH  038%=      5-min Rain = 0
KGU1 121100Z 29007KT 17/02 A3023 RMK A01 T01670024  RH  039%=      5-min Rain = 0
KGU1 121101Z 29007KT 17/02 A3023 RMK A01 T01670023  RH  039%=      5-min Rain = 0
KGU1 121102Z 29007KT 17/02 A3023 RMK A01 T01670020  RH  038%=      5-min Rain = 0
KGU1 121103Z 28006KT 17/02 A3024 RMK A01 T01680021  RH  038%=      5-min Rain = 0
KGU1 121104Z 29006KT 17/02 A3024 RMK A01 T01670022  RH  038%=      5-min Rain = 0
KGU1 121105Z 29006KT 17/02 A3023 RMK A01 T01650023  RH  039%=      5-min Rain = 0
KGU1 121106Z 29006KT 16/02 A3023 RMK A01 T01630024  RH  040%=      5-min Rain = 0
KGU1 121107Z 29006KT 16/02 A3024 RMK A01 T01620024  RH  040%=      5-min Rain = 0
KGU1 121108Z 28006KT 16/03 A3024 RMK A01 T01610025  RH  041%=      5-min Rain = 0
KGU1 121109Z 29006KT 16/03 A3024 RMK A01 T01590025  RH  041%=      5-min Rain = 0
KGU1 121110Z 29006KT 16/03 A3024 RMK A01 T01600025  RH  041%=      5-min Rain = 0
KGU1 121111Z 29006KT 16/02 A3024 RMK A01 T01600024  RH  041%=      5-min Rain = 0
KGU1 121112Z 28005KT 16/02 A3024 RMK A01 T01600024  RH  040%=      5-min Rain = 0
KGU1 121113Z 30006KT 16/02 A3024 RMK A01 T01610024  RH  040%=      5-min Rain = 0
KGU1 121114Z 29006KT 16/02 A3024 RMK A01 T01600024  RH  040%=      5-min Rain = 0
KGU1 121115Z 29007KT 16/02 A3024 RMK A01 T01600024  RH  041%=      5-min Rain = 0
KGU1 121116Z 29006KT 16/03 A3024 RMK A01 T01590025  RH  041%=      5-min Rain = 0
KGU1 121117Z 29006KT 16/03 A3024 RMK A01 T01590025  RH  041%=      5-min Rain = 0
KGU1 121118Z 29006KT 16/03 A3024 RMK A01 T01580025  RH  041%=      5-min Rain = 0
KGU1 121119Z 29006KT 16/02 A3024 RMK A01 T01580024  RH  041%=      5-min Rain = 0
KGU1 121120Z 28006KT 16/02 A3024 RMK A01 T01590024  RH  041%=      5-min Rain = 0
KGU1 121121Z 30007KT 16/02 A3024 RMK A01 T01600023  RH  040%=      5-min Rain = 0
KGU1 121122Z 29006KT 16/02 A3024 RMK A01 T01620022  RH  039%=      5-min Rain = 0
KGU1 121123Z 28006KT 16/02 A3024 RMK A01 T01630023  RH  040%=      5-min Rain = 0
KGU1 121124Z 28006KT 16/02 A3024 RMK A01 T01620024  RH  040%=      5-min Rain = 0
KGU1 121125Z 29006KT 16/02 A3024 RMK A01 T01620023  RH  039%=      5-min Rain = 0
KGU1 121126Z 28006KT 17/02 A3024 RMK A01 T01670018  RH  037%=      5-min Rain = 0
KGU1 121127Z 29007KT 17/02 A3024 RMK A01 T01700017  RH  036%=      5-min Rain = 0
KGU1 121128Z 29006KT 17/01 A3024 RMK A01 T01740014  RH  034%=      5-min Rain = 0
KGU1 121129Z 29007KT 18/01 A3024 RMK A01 T01760013  RH  034%=      5-min Rain = 0
KGU1 121130Z 29007KT 18/01 A3024 RMK A01 T01780013  RH  033%=      5-min Rain = 0
KGU1 121131Z 29006KT 18/02 A3024 RMK A01 T01790015  RH  033%=      5-min Rain = 0
KGU1 121132Z 28006KT 18/02 A3024 RMK A01 T01790016  RH  034%=      5-min Rain = 0
KGU1 121133Z 29006KT 18/02 A3024 RMK A01 T01800015  RH  033%=      5-min Rain = 0
KGU1 121134Z 28006KT 18/02 A3024 RMK A01 T01790018  RH  034%=      5-min Rain = 0
KGU1 121135Z 30004KT 18/02 A3024 RMK A01 T01750020  RH  036%=      5-min Rain = 0
KGU1 121136Z 29005KT 17/02 A3024 RMK A01 T01730022  RH  037%=      5-min Rain = 0
KGU1 121137Z 28007KT 17/03 A3024 RMK A01 T01680025  RH  039%=      5-min Rain = 0
KGU1 121138Z 28008KT 17/03 A3024 RMK A01 T01650027  RH  040%=      5-min Rain = 0
KGU1 121139Z 28007KT 17/02 A3024 RMK A01 T01650018  RH  038%=      5-min Rain = 0
KGU1 121140Z 29005KT 17/01 A3024 RMK A01 T01690012  RH  035%=      5-min Rain = 0
KGU1 121141Z 29006KT 17/01 A3024 RMK A01 T01730009  RH  034%=      5-min Rain = 0
KGU1 121142Z 29004KT 18/01 A3024 RMK A01 T01750009  RH  033%=      5-min Rain = 0
KGU1 121143Z 29005KT 18/01 A3024 RMK A01 T01770010  RH  033%=      5-min Rain = 0
KGU1 121144Z 29006KT 18/01 A3024 RMK A01 T01780011  RH  033%=      5-min Rain = 0
KGU1 121145Z 29005KT 18/01 A3024 RMK A01 T01770012  RH  033%=      5-min Rain = 0
KGU1 121146Z 29006KT 18/01 A3024 RMK A01 T01760013  RH  034%=      5-min Rain = 0
KGU1 121147Z 29007KT 18/01 A3024 RMK A01 T01750013  RH  034%=      5-min Rain = 0
KGU1 121148Z 29008KT 18/01 A3024 RMK A01 T01750013  RH  034%=      5-min Rain = 0
KGU1 121149Z 29007KT 18/01 A3024 RMK A01 T01760011  RH  033%=      5-min Rain = 0
KGU1 121150Z 29007KT 18/01 A3024 RMK A01 T01770008  RH  032%=      5-min Rain = 0
KGU1 121151Z 29007KT 18/01 A3024 RMK A01 T01790007  RH  032%=      5-min Rain = 0
KGU1 121152Z 28007KT 18/01 A3024 RMK A01 T01810005  RH  031%=      5-min Rain = 0
KGU1 121153Z 28007KT 18/00 A3024 RMK A01 T01830004  RH  030%=      5-min Rain = 0
KGU1 121154Z 28006KT 18/01 A3024 RMK A01 T01840005  RH  030%=      5-min Rain = 0
KGU1 121155Z 28005KT 18/01 A3024 RMK A01 T01840006  RH  031%=      5-min Rain = 0
KGU1 121156Z 27006KT 18/01 A3024 RMK A01 T01830008  RH  031%=      5-min Rain = 0
KGU1 121157Z 27006KT 18/01 A3024 RMK A01 T01800009  RH  032%=      5-min Rain = 0
KGU1 121158Z 28006KT 18/01 A3024 RMK A01 T01780009  RH  032%=      5-min Rain = 0
KGU1 121159Z 28006KT 18/01 A3024 RMK A01 T01760008  RH  033%=      5-min Rain = 0
KGU1 121200Z 28006KT 18/01 A3024 RMK A01 T01750007  RH  033%=      5-min Rain = 0
KGU1 121201Z 28006KT 17/01 A3024 RMK A01 T01740008  RH  033%=      5-min Rain = 0
KGU1 121202Z 28007KT 17/01 A3024 RMK A01 T01730008  RH  033%=      5-min Rain = 0
KGU1 121203Z 28007KT 17/01 A3024 RMK A01 T01710008  RH  034%=      5-min Rain = 0
KGU1 121204Z 29008KT 17/01 A3024 RMK A01 T01700008  RH  034%=      5-min Rain = 0
KGU1 121205Z 28008KT 17/01 A3024 RMK A01 T01680007  RH  034%=      5-min Rain = 0
KGU1 121206Z 28008KT 17/01 A3024 RMK A01 T01680007  RH  034%=      5-min Rain = 0
KGU1 121207Z 28008KT 17/01 A3024 RMK A01 T01680005  RH  034%=      5-min Rain = 0
KGU1 121208Z 28007KT 17/00 A3024 RMK A01 T01690004  RH  033%=      5-min Rain = 0
KGU1 121209Z 28008KT 17/00 A3024 RMK A01 T01690004  RH  033%=      5-min Rain = 0
KGU1 121210Z 28007KT 17/00 A3024 RMK A01 T01700003  RH  033%=      5-min Rain = 0
KGU1 121211Z 27008KT 17/00 A3024 RMK A01 T01700003  RH  032%=      5-min Rain = 0
KGU1 121212Z 27009KT 17/00 A3024 RMK A01 T01720002  RH  032%=      5-min Rain = 0
KGU1 121213Z 27008KT 17/00 A3024 RMK A01 T01730001  RH  032%=      5-min Rain = 0
KGU1 121214Z 27007KT 18/00 A3024 RMK A01 T01750001  RH  031%=      5-min Rain = 0
KGU1 121215Z 26007KT 18/00 A3024 RMK A01 T01760000  RH  031%=      5-min Rain = 0
KGU1 121216Z 26006KT 18/00 A3024 RMK A01 T017700-0  RH  031%=      5-min Rain = 0
KGU1 121217Z 26006KT 18/00 A3024 RMK A01 T017800-0  RH  030%=      5-min Rain = 0
KGU1 121218Z 26006KT 18/00 A3024 RMK A01 T01790001  RH  030%=      5-min Rain = 0
KGU1 121219Z 27006KT 18/00 A3024 RMK A01 T01780002  RH  031%=      5-min Rain = 0
KGU1 121220Z 27005KT 18/00 A3025 RMK A01 T01770002  RH  031%=      5-min Rain = 0
KGU1 121221Z 26005KT 18/00 A3025 RMK A01 T01760003  RH  031%=      5-min Rain = 0
KGU1 121222Z 27006KT 17/00 A3025 RMK A01 T01740003  RH  032%=      5-min Rain = 0
KGU1 121223Z 28006KT 17/00 A3025 RMK A01 T01730003  RH  032%=      5-min Rain = 0
KGU1 121224Z 28006KT 17/00 A3025 RMK A01 T01710003  RH  032%=      5-min Rain = 0
KGU1 121225Z 27006KT 17/00 A3025 RMK A01 T01700003  RH  033%=      5-min Rain = 0
KGU1 121226Z 27006KT 17/00 A3025 RMK A01 T01690002  RH  033%=      5-min Rain = 0
KGU1 121227Z 28006KT 17/00 A3025 RMK A01 T01690002  RH  033%=      5-min Rain = 0
KGU1 121228Z 28005KT 17/00 A3025 RMK A01 T01680002  RH  033%=      5-min Rain = 0
KGU1 121229Z 27005KT 17/00 A3025 RMK A01 T01680002  RH  033%=      5-min Rain = 0
KGU1 121230Z 27005KT 17/00 A3025 RMK A01 T01670001  RH  033%=      5-min Rain = 0
KGU1 121231Z 27005KT 17/00 A3025 RMK A01 T01670002  RH  033%=      5-min Rain = 0
KGU1 121232Z 29005KT 17/00 A3025 RMK A01 T01660001  RH  033%=      5-min Rain = 0
KGU1 121233Z 29006KT 17/00 A3025 RMK A01 T01650001  RH  033%=      5-min Rain = 0
KGU1 121234Z 28006KT 17/00 A3024 RMK A01 T01650001  RH  033%=      5-min Rain = 0
KGU1 121235Z 29007KT 17/M00 A3024 RMK A01 T01651001  RH  033%=      5-min Rain = 0
KGU1 121236Z 29007KT 17/M00 A3024 RMK A01 T01661001  RH  033%=      5-min Rain = 0
KGU1 121237Z 29007KT 17/M00 A3024 RMK A01 T01671002  RH  032%=      5-min Rain = 0
KGU1 121238Z 29006KT 17/M00 A3024 RMK A01 T01681002  RH  032%=      5-min Rain = 0
KGU1 121239Z 29007KT 17/M00 A3024 RMK A01 T01691002  RH  032%=      5-min Rain = 0
KGU1 121240Z 29007KT 17/M00 A3024 RMK A01 T01701002  RH  031%=      5-min Rain = 0
KGU1 121241Z 29007KT 17/M00 A3024 RMK A01 T01711002  RH  031%=      5-min Rain = 0
KGU1 121242Z 29006KT 17/M00 A3024 RMK A01 T01711003  RH  031%=      5-min Rain = 0
KGU1 121243Z 29007KT 17/M00 A3024 RMK A01 T01721002  RH  031%=      5-min Rain = 0
KGU1 121244Z 29007KT 17/M00 A3024 RMK A01 T01721003  RH  031%=      5-min Rain = 0
KGU1 121245Z 29008KT 17/M00 A3024 RMK A01 T01741004  RH  030%=      5-min Rain = 0
KGU1 121246Z 29008KT 18/M00 A3024 RMK A01 T01751004  RH  030%=      5-min Rain = 0
KGU1 121247Z 29008KT 18/M00 A3024 RMK A01 T01761004  RH  030%=      5-min Rain = 0
KGU1 121248Z 30008KT 18/M00 A3025 RMK A01 T01771004  RH  030%=      5-min Rain = 0
KGU1 121249Z 29008KT 18/M00 A3025 RMK A01 T01791004  RH  029%=      5-min Rain = 0
KGU1 121250Z 29007KT 18/M00 A3025 RMK A01 T01801004  RH  029%=      5-min Rain = 0
KGU1 121251Z 30008KT 18/M00 A3025 RMK A01 T01801003  RH  029%=      5-min Rain = 0
KGU1 121252Z 30009KT 18/M00 A3025 RMK A01 T01801003  RH  029%=      5-min Rain = 0
KGU1 121253Z 29008KT 18/M00 A3025 RMK A01 T01811003  RH  029%=      5-min Rain = 0
KGU1 121254Z 30009KT 18/M00 A3025 RMK A01 T01811003  RH  029%=      5-min Rain = 0
KGU1 121255Z 29008KT 18/M00 A3025 RMK A01 T01811003  RH  029%=      5-min Rain = 0
KGU1 121256Z 29008KT 18/M00 A3025 RMK A01 T01811004  RH  029%=      5-min Rain = 0
KGU1 121257Z 30009KT 18/M00 A3025 RMK A01 T01821004  RH  029%=      5-min Rain = 0
KGU1 121258Z 30009KT 18/M00 A3025 RMK A01 T01831004  RH  028%=      5-min Rain = 0
KGU1 121259Z 29009KT 18/M00 A3025 RMK A01 T01841004  RH  028%=      5-min Rain = 0
KGU1 121300Z 29009KT 19/M00 A3025 RMK A01 T01851004  RH  028%=      5-min Rain = 0
KGU1 121301Z 29009KT 19/M00 A3025 RMK A01 T01851004  RH  028%=      5-min Rain = 0
KGU1 121302Z 29008KT 19/M00 A3025 RMK A01 T01861004  RH  028%=      5-min Rain = 0
KGU1 121303Z 30008KT 19/M00 A3025 RMK A01 T01861004  RH  028%=      5-min Rain = 0
KGU1 121304Z 29009KT 19/M00 A3025 RMK A01 T01871004  RH  028%=      5-min Rain = 0
KGU1 121305Z 29008KT 19/M00 A3025 RMK A01 T01881004  RH  028%=      5-min Rain = 0
KGU1 121306Z 29008KT 19/M00 A3025 RMK A01 T01881004  RH  028%=      5-min Rain = 0
KGU1 121307Z 29008KT 19/M00 A3025 RMK A01 T01891003  RH  028%=      5-min Rain = 0
KGU1 121308Z 29009KT 19/M00 A3025 RMK A01 T01891003  RH  028%=      5-min Rain = 0
KGU1 121309Z 29009KT 19/M00 A3025 RMK A01 T01901003  RH  028%=      5-min Rain = 0
KGU1 121310Z 30009KT 19/M00 A3025 RMK A01 T01901002  RH  028%=      5-min Rain = 0
KGU1 121311Z 29010KT 19/M00 A3025 RMK A01 T01901003  RH  028%=      5-min Rain = 0
KGU1 121312Z 29009KT 19/M00 A3025 RMK A01 T01911002  RH  028%=      5-min Rain = 0
KGU1 121313Z 29010KT 19/M00 A3025 RMK A01 T01921002  RH  028%=      5-min Rain = 0
KGU1 121314Z 29010KT 19/M00 A3025 RMK A01 T01921002  RH  027%=      5-min Rain = 0
KGU1 121315Z 29009KT 19/M00 A3025 RMK A01 T01931001  RH  028%=      5-min Rain = 0
KGU1 121316Z 29011KT 19/M00 A3025 RMK A01 T01931001  RH  027%=      5-min Rain = 0
KGU1 121317Z 29010KT 19/M00 A3025 RMK A01 T01941001  RH  027%=      5-min Rain = 0
KGU1 121318Z 29010KT 20/M00 A3025 RMK A01 T01951001  RH  027%=      5-min Rain = 0
KGU1 121319Z 29010KT 20/00 A3025 RMK A01 T019600-0  RH  027%=      5-min Rain = 0
KGU1 121320Z 29011KT 20/M00 A3025 RMK A01 T01971001  RH  027%=      5-min Rain = 0
KGU1 121321Z 29009KT 20/00 A3025 RMK A01 T01970000  RH  027%=      5-min Rain = 0
KGU1 121322Z 29009KT 20/00 A3025 RMK A01 T01970002  RH  027%=      5-min Rain = 0
KGU1 121323Z 29010KT 20/00 A3025 RMK A01 T01980002  RH  027%=      5-min Rain = 0
KGU1 121324Z 29009KT 20/00 A3025 RMK A01 T01980002  RH  027%=      5-min Rain = 0
KGU1 121325Z 29010KT 20/00 A3025 RMK A01 T01990003  RH  027%=      5-min Rain = 0
KGU1 121326Z 29009KT 20/00 A3025 RMK A01 T01990004  RH  027%=      5-min Rain = 0
KGU1 121327Z 29010KT 20/00 A3025 RMK A01 T01990004  RH  027%=      5-min Rain = 0
KGU1 121328Z 29009KT 20/01 A3025 RMK A01 T02000005  RH  027%=      5-min Rain = 0
KGU1 121329Z 29008KT 20/01 A3025 RMK A01 T02000006  RH  028%=      5-min Rain = 0
KGU1 121330Z 29008KT 20/01 A3025 RMK A01 T02000007  RH  028%=      5-min Rain = 0
KGU1 121331Z 29008KT 20/01 A3025 RMK A01 T02000008  RH  028%=      5-min Rain = 0
KGU1 121332Z 29008KT 20/01 A3025 RMK A01 T02010008  RH  028%=      5-min Rain = 0
KGU1 121333Z 29007KT 20/01 A3025 RMK A01 T02020010  RH  028%=      5-min Rain = 0
KGU1 121334Z 29008KT 20/01 A3025 RMK A01 T02020010  RH  028%=      5-min Rain = 0
KGU1 121335Z 29008KT 20/01 A3025 RMK A01 T02040010  RH  028%=      5-min Rain = 0
KGU1 121336Z 29007KT 21/01 A3025 RMK A01 T02050011  RH  028%=      5-min Rain = 0
KGU1 121337Z 29007KT 21/01 A3025 RMK A01 T02050011  RH  028%=      5-min Rain = 0
KGU1 121338Z 29008KT 21/01 A3025 RMK A01 T02060013  RH  028%=      5-min Rain = 0
KGU1 121339Z 29008KT 21/01 A3025 RMK A01 T02060014  RH  028%=      5-min Rain = 0
KGU1 121340Z 29008KT 21/02 A3025 RMK A01 T02060015  RH  028%=      5-min Rain = 0
KGU1 121341Z 29007KT 21/02 A3025 RMK A01 T02070015  RH  028%=      5-min Rain = 0
KGU1 121342Z 29008KT 21/01 A3025 RMK A01 T02070014  RH  028%=      5-min Rain = 0
KGU1 121343Z 29007KT 21/02 A3025 RMK A01 T02080016  RH  028%=      5-min Rain = 0
KGU1 121344Z 29008KT 21/02 A3025 RMK A01 T02080018  RH  029%=      5-min Rain = 0
KGU1 121345Z 29008KT 21/02 A3025 RMK A01 T02090016  RH  028%=      5-min Rain = 0
KGU1 121346Z 29007KT 21/02 A3025 RMK A01 T02090017  RH  028%=      5-min Rain = 0
KGU1 121347Z 29007KT 21/02 A3025 RMK A01 T02100018  RH  028%=      5-min Rain = 0
KGU1 121348Z 30008KT 21/02 A3025 RMK A01 T02100018  RH  028%=      5-min Rain = 0
KGU1 121349Z 29009KT 21/02 A3025 RMK A01 T02100018  RH  028%=      5-min Rain = 0
KGU1 121350Z 29008KT 21/02 A3025 RMK A01 T02120018  RH  028%=      5-min Rain = 0
KGU1 121351Z 29008KT 21/02 A3025 RMK A01 T02120021  RH  029%=      5-min Rain = 0
KGU1 121352Z 29009KT 21/02 A3025 RMK A01 T02120020  RH  028%=      5-min Rain = 0
KGU1 121353Z 29008KT 21/02 A3025 RMK A01 T02120023  RH  029%=      5-min Rain = 0
KGU1 121354Z 29008KT 21/02 A3025 RMK A01 T02130022  RH  029%=      5-min Rain = 0
KGU1 121355Z 29008KT 21/02 A3025 RMK A01 T02130024  RH  029%=      5-min Rain = 0
KGU1 121356Z 29008KT 21/02 A3025 RMK A01 T02140023  RH  029%=      5-min Rain = 0
KGU1 121357Z 29006KT 21/03 A3025 RMK A01 T02140025  RH  029%=      5-min Rain = 0
KGU1 121358Z 29006KT 22/03 A3025 RMK A01 T02150025  RH  029%=      5-min Rain = 0
KGU1 121359Z 29007KT 22/03 A3025 RMK A01 T02160027  RH  029%=      5-min Rain = 0
KGU1 121400Z 29007KT 22/03 A3025 RMK A01 T02170028  RH  029%=      5-min Rain = 0
KGU1 121401Z 28007KT 22/03 A3025 RMK A01 T02170029  RH  029%=      5-min Rain = 0
KGU1 121402Z 28006KT 22/03 A3025 RMK A01 T02180032  RH  030%=      5-min Rain = 0
KGU1 121403Z 28007KT 22/03 A3025 RMK A01 T02180031  RH  029%=      5-min Rain = 0
KGU1 121404Z 28007KT 22/03 A3025 RMK A01 T02190031  RH  029%=      5-min Rain = 0
KGU1 121405Z 28007KT 22/03 A3025 RMK A01 T02200030  RH  029%=      5-min Rain = 0
KGU1 121406Z 28007KT 22/03 A3025 RMK A01 T02210030  RH  029%=      5-min Rain = 0
KGU1 121407Z 28006KT 22/03 A3025 RMK A01 T02210031  RH  029%=      5-min Rain = 0
KGU1 121408Z 28006KT 22/03 A3025 RMK A01 T02220033  RH  029%=      5-min Rain = 0
KGU1 121409Z 27006KT 22/03 A3025 RMK A01 T02230033  RH  029%=      5-min Rain = 0
KGU1 121410Z 27004KT 22/03 A3025 RMK A01 T02240034  RH  029%=      5-min Rain = 0
KGU1 121411Z 29004KT 23/04 A3025 RMK A01 T02250037  RH  030%=      5-min Rain = 0
KGU1 121412Z 29005KT 23/04 A3025 RMK A01 T02260035  RH  029%=      5-min Rain = 0
KGU1 121413Z 28006KT 23/03 A3025 RMK A01 T02260032  RH  028%=      5-min Rain = 0
KGU1 121414Z 28004KT 23/03 A3025 RMK A01 T02270034  RH  029%=      5-min Rain = 0
KGU1 121415Z 29005KT 23/04 A3025 RMK A01 T02280036  RH  029%=      5-min Rain = 0
KGU1 121416Z 29005KT 23/03 A3025 RMK A01 T02290033  RH  028%=      5-min Rain = 0
KGU1 121417Z 28005KT 23/03 A3025 RMK A01 T02300034  RH  028%=      5-min Rain = 0
KGU1 121418Z 28004KT 23/03 A3025 RMK A01 T02310033  RH  028%=      5-min Rain = 0
KGU1 121419Z 28003KT 23/03 A3025 RMK A01 T02320032  RH  027%=      5-min Rain = 0
KGU1 121420Z 28003KT 23/03 A3025 RMK A01 T02330027  RH  026%=      5-min Rain = 0
KGU1 121421Z 29003KT 23/02 A3025 RMK A01 T02340021  RH  025%=      5-min Rain = 0
KGU1 121422Z 29002KT 23/02 A3025 RMK A01 T02340024  RH  026%=      5-min Rain = 0
KGU1 121423Z 28002KT 24/02 A3025 RMK A01 T02350024  RH  025%=      5-min Rain = 0
KGU1 121424Z 28002KT 24/02 A3025 RMK A01 T02370020  RH  025%=      5-min Rain = 0
KGU1 121425Z 27002KT 24/02 A3025 RMK A01 T02380019  RH  024%=      5-min Rain = 0
KGU1 121426Z 26002KT 24/02 A3025 RMK A01 T02400021  RH  024%=      5-min Rain = 0
KGU1 121427Z 27002KT 24/02 A3025 RMK A01 T02410020  RH  024%=      5-min Rain = 0
KGU1 121428Z 27002KT 24/01 A3025 RMK A01 T02420014  RH  023%=      5-min Rain = 0
KGU1 121429Z 26002KT 24/02 A3025 RMK A01 T02420016  RH  023%=      5-min Rain = 0
KGU1 121430Z 25001KT 24/03 A3025 RMK A01 T02440030  RH  025%=      5-min Rain = 0
KGU1 121431Z 23001KT 25/02 A3025 RMK A01 T02460019  RH  023%=      5-min Rain = 0
KGU1 121432Z 24002KT 25/02 A3025 RMK A01 T02460022  RH  023%=      5-min Rain = 0
KGU1 121433Z 25001KT 25/01 A3025 RMK A01 T02460014  RH  022%=      5-min Rain = 0
KGU1 121434Z 26002KT 25/01 A3025 RMK A01 T02460014  RH  022%=      5-min Rain = 0
KGU1 121435Z 25002KT 25/02 A3025 RMK A01 T02460018  RH  023%=      5-min Rain = 0
KGU1 121436Z 24002KT 25/02 A3025 RMK A01 T02470021  RH  023%=      5-min Rain = 0
KGU1 121437Z 23001KT 25/02 A3025 RMK A01 T02480015  RH  022%=      5-min Rain = 0
KGU1 121438Z 22001KT 25/02 A3025 RMK A01 T02480015  RH  022%=      5-min Rain = 0
KGU1 121439Z 24001KT 25/02 A3025 RMK A01 T02490018  RH  022%=      5-min Rain = 0
KGU1 121440Z 26002KT 25/03 A3025 RMK A01 T02490026  RH  024%=      5-min Rain = 0
KGU1 121441Z 23002KT 25/02 A3025 RMK A01 T02490016  RH  022%=      5-min Rain = 0
KGU1 121442Z 22002KT 25/02 A3025 RMK A01 T02490019  RH  022%=      5-min Rain = 0
KGU1 121443Z 20002KT 25/02 A3025 RMK A01 T02500017  RH  022%=      5-min Rain = 0
KGU1 121444Z 20003KT 25/02 A3025 RMK A01 T02490015  RH  022%=      5-min Rain = 0
KGU1 121445Z 21003KT 25/03 A3025 RMK A01 T02490025  RH  024%=      5-min Rain = 0
KGU1 121446Z 21004KT 25/02 A3025 RMK A01 T02480024  RH  023%=      5-min Rain = 0
KGU1 121447Z 19003KT 25/03 A3025 RMK A01 T02480026  RH  024%=      5-min Rain = 0
KGU1 121448Z 18004KT 25/03 A3025 RMK A01 T02480025  RH  024%=      5-min Rain = 0
KGU1 121449Z 18004KT 25/03 A3025 RMK A01 T02480033  RH  025%=      5-min Rain = 0
KGU1 121450Z 19004KT 25/04 A3025 RMK A01 T02470038  RH  026%=      5-min Rain = 0
KGU1 121451Z 20003KT 25/04 A3025 RMK A01 T02460037  RH  026%=      5-min Rain = 0
KGU1 121452Z 19003KT 25/04 A3025 RMK A01 T02450042  RH  027%=      5-min Rain = 0
KGU1 121453Z 18003KT 25/04 A3025 RMK A01 T02450039  RH  027%=      5-min Rain = 0
KGU1 121454Z 20004KT 25/03 A3025 RMK A01 T02450032  RH  025%=      5-min Rain = 0
KGU1 121455Z 22003KT 25/04 A3025 RMK A01 T02460036  RH  026%=      5-min Rain = 0
KGU1 121456Z 21003KT 25/03 A3026 RMK A01 T02470033  RH  025%=      5-min Rain = 0
KGU1 121457Z 20003KT 25/03 A3026 RMK A01 T02480027  RH  024%=      5-min Rain = 0
KGU1 121458Z 20002KT 25/02 A3026 RMK A01 T02480024  RH  023%=      5-min Rain = 0
KGU1 121459Z 21002KT 25/02 A3026 RMK A01 T02480022  RH  023%=      5-min Rain = 0
KGU1 121500Z 19003KT 25/03 A3026 RMK A01 T02490029  RH  024%=      5-min Rain = 0
KGU1 121501Z 19003KT 25/02 A3026 RMK A01 T02500024  RH  023%=      5-min Rain = 0
KGU1 121502Z 19004KT 25/03 A3026 RMK A01 T02500025  RH  023%=      5-min Rain = 0
KGU1 121503Z 20003KT 25/03 A3026 RMK A01 T02500030  RH  024%=      5-min Rain = 0
KGU1 121504Z 20004KT 25/03 A3026 RMK A01 T02510025  RH  023%=      5-min Rain = 0
KGU1 121505Z 20005KT 25/03 A3026 RMK A01 T02500026  RH  023%=      5-min Rain = 0
KGU1 121506Z 20004KT 25/03 A3026 RMK A01 T02500025  RH  023%=      5-min Rain = 0
KGU1 121507Z 19003KT 25/02 A3026 RMK A01 T02500023  RH  023%=      5-min Rain = 0
KGU1 121508Z 19001KT 25/03 A3026 RMK A01 T02490025  RH  024%=      5-min Rain = 0
KGU1 121509Z 18002KT 25/03 A3026 RMK A01 T02500030  RH  024%=      5-min Rain = 0
KGU1 121510Z 18004KT 25/03 A3026 RMK A01 T02510027  RH  024%=      5-min Rain = 0
KGU1 121511Z 20002KT 25/03 A3026 RMK A01 T02520028  RH  024%=      5-min Rain = 0
KGU1 121512Z 19004KT 25/03 A3026 RMK A01 T02530027  RH  023%=      5-min Rain = 0
KGU1 121513Z 19004KT 25/02 A3026 RMK A01 T02530024  RH  023%=      5-min Rain = 0
KGU1 121514Z 19004KT 25/03 A3026 RMK A01 T02530031  RH  024%=      5-min Rain = 0
KGU1 121515Z 19004KT 25/04 A3026 RMK A01 T02520037  RH  025%=      5-min Rain = 0
KGU1 121516Z 20005KT 25/03 A3026 RMK A01 T02520029  RH  024%=      5-min Rain = 0
KGU1 121517Z 19004KT 25/03 A3026 RMK A01 T02510026  RH  023%=      5-min Rain = 0
KGU1 121518Z 17004KT 25/03 A3026 RMK A01 T02510028  RH  024%=      5-min Rain = 0
KGU1 121519Z 19004KT 25/03 A3026 RMK A01 T02520026  RH  023%=      5-min Rain = 0
KGU1 121520Z 19003KT 25/03 A3026 RMK A01 T02520027  RH  023%=      5-min Rain = 0
KGU1 121521Z 18002KT 25/03 A3026 RMK A01 T02520029  RH  024%=      5-min Rain = 0
KGU1 121522Z 19002KT 25/02 A3026 RMK A01 T02520023  RH  023%=      5-min Rain = 0
KGU1 121523Z 18003KT 25/03 A3026 RMK A01 T02520025  RH  023%=      5-min Rain = 0
KGU1 121524Z 16003KT 25/03 A3026 RMK A01 T02520028  RH  023%=      5-min Rain = 0
KGU1 121525Z 16003KT 25/03 A3026 RMK A01 T02530025  RH  023%=      5-min Rain = 0
KGU1 121526Z 21003KT 25/03 A3026 RMK A01 T02530026  RH  023%=      5-min Rain = 0
KGU1 121527Z 20003KT 25/03 A3026 RMK A01 T02530027  RH  023%=      5-min Rain = 0
KGU1 121528Z 20003KT 25/03 A3026 RMK A01 T02520028  RH  024%=      5-min Rain = 0
KGU1 121529Z 19004KT 25/03 A3026 RMK A01 T02520029  RH  024%=      5-min Rain = 0
KGU1 121530Z 17004KT 25/03 A3026 RMK A01 T02530025  RH  023%=      5-min Rain = 0
KGU1 121531Z 19003KT 25/03 A3026 RMK A01 T02540028  RH  023%=      5-min Rain = 0
KGU1 121532Z 19004KT 26/03 A3026 RMK A01 T02550034  RH  024%=      5-min Rain = 0
KGU1 121533Z 19004KT 26/03 A3026 RMK A01 T02550033  RH  024%=      5-min Rain = 0
KGU1 121534Z 20002KT 26/04 A3026 RMK A01 T02560036  RH  025%=      5-min Rain = 0
KGU1 121535Z 23001KT 26/04 A3026 RMK A01 T02570038  RH  025%=      5-min Rain = 0
KGU1 121536Z 24001KT 26/04 A3026 RMK A01 T02570037  RH  024%=      5-min Rain = 0
KGU1 121537Z 19004KT 26/03 A3026 RMK A01 T02590031  RH  023%=      5-min Rain = 0
KGU1 121538Z 19004KT 26/03 A3026 RMK A01 T02580032  RH  023%=      5-min Rain = 0
KGU1 121539Z 21003KT 26/04 A3026 RMK A01 T02570039  RH  025%=      5-min Rain = 0
KGU1 121540Z 22002KT 26/04 A3026 RMK A01 T02570036  RH  024%=      5-min Rain = 0
KGU1 121541Z 19002KT 26/04 A3026 RMK A01 T02570041  RH  025%=      5-min Rain = 0
KGU1 121542Z 19004KT 26/03 A3026 RMK A01 T02580033  RH  023%=      5-min Rain = 0
KGU1 121543Z 16005KT 26/03 A3026 RMK A01 T02590031  RH  023%=      5-min Rain = 0
KGU1 121544Z 17004KT 26/03 A3026 RMK A01 T02590030  RH  023%=      5-min Rain = 0
KGU1 121545Z 18005KT 26/03 A3026 RMK A01 T02600028  RH  023%=      5-min Rain = 0
KGU1 121546Z 18005KT 26/03 A3026 RMK A01 T02590025  RH  022%=      5-min Rain = 0
KGU1 121547Z 16006KT 26/03 A3026 RMK A01 T02590028  RH  023%=      5-min Rain = 0
KGU1 121548Z 19006KT 26/03 A3026 RMK A01 T02600030  RH  023%=      5-min Rain = 0
KGU1 121549Z 18005KT 26/03 A3026 RMK A01 T02590027  RH  023%=      5-min Rain = 0
KGU1 121550Z 20006KT 26/03 A3026 RMK A01 T02570028  RH  023%=      5-min Rain = 0
KGU1 121551Z 21005KT 26/03 A3026 RMK A01 T02570029  RH  023%=      5-min Rain = 0
KGU1 121552Z 20004KT 26/03 A3026 RMK A01 T02570032  RH  023%=      5-min Rain = 0
KGU1 121553Z 19005KT 26/03 A3026 RMK A01 T02590027  RH  023%=      5-min Rain = 0
KGU1 121554Z 20004KT 26/03 A3026 RMK A01 T02590030  RH  023%=      5-min Rain = 0
KGU1 121555Z 20005KT 26/03 A3026 RMK A01 T02600031  RH  023%=      5-min Rain = 0
KGU1 121556Z 21005KT 26/03 A3026 RMK A01 T02600030  RH  023%=      5-min Rain = 0
KGU1 121557Z 19006KT 26/02 A3026 RMK A01 T02600023  RH  022%=      5-min Rain = 0
KGU1 121558Z 20004KT 26/03 A3026 RMK A01 T02590028  RH  023%=      5-min Rain = 0
KGU1 121559Z 20005KT 26/03 A3026 RMK A01 T02590034  RH  024%=      5-min Rain = 0
KGU1 121600Z 18006KT 26/03 A3026 RMK A01 T02590026  RH  022%=      5-min Rain = 0
KGU1 121601Z 18006KT 26/03 A3026 RMK A01 T02580031  RH  023%=      5-min Rain = 0
KGU1 121602Z 18006KT 26/03 A3026 RMK A01 T02580032  RH  023%=      5-min Rain = 0
KGU1 121603Z 19006KT 26/02 A3026 RMK A01 T02580024  RH  022%=      5-min Rain = 0
KGU1 121604Z 18006KT 26/03 A3026 RMK A01 T02570027  RH  023%=      5-min Rain = 0
KGU1 121605Z 18005KT 26/03 A3026 RMK A01 T02570027  RH  023%=      5-min Rain = 0
KGU1 121606Z 21006KT 26/03 A3026 RMK A01 T02570030  RH  023%=      5-min Rain = 0
KGU1 121607Z 21005KT 26/03 A3026 RMK A01 T02570028  RH  023%=      5-min Rain = 0
KGU1 121608Z 20005KT 26/03 A3026 RMK A01 T02580028  RH  023%=      5-min Rain = 0
KGU1 121609Z 18005KT 26/03 A3026 RMK A01 T02580032  RH  023%=      5-min Rain = 0
KGU1 121610Z 20006KT 26/03 A3026 RMK A01 T02590026  RH  022%=      5-min Rain = 0
KGU1 121611Z 20005KT 26/03 A3026 RMK A01 T02580028  RH  023%=      5-min Rain = 0
KGU1 121612Z 19005KT 26/03 A3026 RMK A01 T02580031  RH  023%=      5-min Rain = 0
KGU1 121613Z 22005KT 26/03 A3026 RMK A01 T02590032  RH  023%=      5-min Rain = 0
KGU1 121614Z 21007KT 26/03 A3026 RMK A01 T02600031  RH  023%=      5-min Rain = 0
KGU1 121615Z 19006KT 26/03 A3026 RMK A01 T02600025  RH  022%=      5-min Rain = 0
KGU1 121616Z 19006KT 26/03 A3026 RMK A01 T02580030  RH  023%=      5-min Rain = 0
KGU1 121617Z 18005KT 26/03 A3026 RMK A01 T02580026  RH  023%=      5-min Rain = 0
KGU1 121618Z 21005KT 26/03 A3026 RMK A01 T02570034  RH  024%=      5-min Rain = 0
KGU1 121619Z 21007KT 26/04 A3026 RMK A01 T02580041  RH  025%=      5-min Rain = 0
KGU1 121620Z 20005KT 26/04 A3026 RMK A01 T02580039  RH  025%=      5-min Rain = 0
KGU1 121621Z 20008KT 26/03 A3026 RMK A01 T02580034  RH  024%=      5-min Rain = 0
KGU1 121622Z 20005KT 26/04 A3026 RMK A01 T02580039  RH  025%=      5-min Rain = 0
KGU1 121623Z 20006KT 26/04 A3026 RMK A01 T02590041  RH  025%=      5-min Rain = 0
KGU1 121624Z 21007KT 26/03 A3026 RMK A01 T02600034  RH  023%=      5-min Rain = 0
KGU1 121625Z 20007KT 26/04 A3026 RMK A01 T02610043  RH  025%=      5-min Rain = 0
KGU1 121626Z 20007KT 26/04 A3026 RMK A01 T02610044  RH  025%=      5-min Rain = 0
KGU1 121627Z 21008KT 26/05 A3026 RMK A01 T02610046  RH  025%=      5-min Rain = 0
KGU1 121628Z 20007KT 26/04 A3026 RMK A01 T02600042  RH  025%=      5-min Rain = 0
KGU1 121629Z 21005KT 26/05 A3026 RMK A01 T02600047  RH  026%=      5-min Rain = 0
KGU1 121630Z 20007KT 26/04 A3026 RMK A01 T02610043  RH  025%=      5-min Rain = 0
KGU1 121631Z 19007KT 26/05 A3026 RMK A01 T02600046  RH  026%=      5-min Rain = 0
KGU1 121632Z 19007KT 26/04 A3026 RMK A01 T02610044  RH  025%=      5-min Rain = 0
KGU1 121633Z 22004KT 26/05 A3026 RMK A01 T02620049  RH  026%=      5-min Rain = 0
KGU1 121634Z 21007KT 26/05 A3026 RMK A01 T02620049  RH  026%=      5-min Rain = 0
KGU1 121635Z 21009KT 26/05 A3026 RMK A01 T02610045  RH  025%=      5-min Rain = 0
KGU1 121636Z 21008KT 26/05 A3026 RMK A01 T02600046  RH  026%=      5-min Rain = 0
KGU1 121637Z 20007KT 26/05 A3026 RMK A01 T02580047  RH  026%=      5-min Rain = 0
KGU1 121638Z 20008KT 26/05 A3026 RMK A01 T02570047  RH  026%=      5-min Rain = 0
KGU1 121639Z 21005KT 26/05 A3026 RMK A01 T02580053  RH  027%=      5-min Rain = 0
KGU1 121640Z 21007KT 26/04 A3026 RMK A01 T02600036  RH  024%=      5-min Rain = 0
KGU1 121641Z 23005KT 26/05 A3026 RMK A01 T02610046  RH  025%=      5-min Rain = 0
KGU1 121642Z 23007KT 26/04 A3026 RMK A01 T02610041  RH  024%=      5-min Rain = 0
KGU1 121643Z 22007KT 26/05 A3026 RMK A01 T02610046  RH  025%=      5-min Rain = 0
KGU1 121644Z 22008KT 26/05 A3026 RMK A01 T02610046  RH  026%=      5-min Rain = 0
KGU1 121645Z 22007KT 26/05 A3026 RMK A01 T02600049  RH  026%=      5-min Rain = 0
KGU1 121646Z 22007KT 26/05 A3026 RMK A01 T02600049  RH  026%=      5-min Rain = 0
KGU1 121647Z 22007KT 26/06 A3026 RMK A01 T02590055  RH  027%=      5-min Rain = 0
KGU1 121648Z 21009KT 26/05 A3026 RMK A01 T02590051  RH  027%=      5-min Rain = 0
KGU1 121649Z 22009KT 26/05 A3026 RMK A01 T02570049  RH  027%=      5-min Rain = 0
KGU1 121650Z 21009KT 26/05 A3026 RMK A01 T02550050  RH  027%=      5-min Rain = 0
KGU1 121651Z 21009KT 25/05 A3026 RMK A01 T02540052  RH  028%=      5-min Rain = 0
KGU1 121652Z 22010KT 25/05 A3026 RMK A01 T02540051  RH  028%=      5-min Rain = 0
KGU1 121653Z 21010KT 25/05 A3026 RMK A01 T02530049  RH  027%=      5-min Rain = 0
KGU1 121654Z 22009KT 25/05 A3026 RMK A01 T02520050  RH  028%=      5-min Rain = 0
KGU1 121655Z 22010KT 25/05 A3026 RMK A01 T02520045  RH  027%=      5-min Rain = 0
KGU1 121656Z 23007KT 25/05 A3026 RMK A01 T02520048  RH  027%=      5-min Rain = 0
KGU1 121657Z 21008KT 25/05 A3026 RMK A01 T02540051  RH  027%=      5-min Rain = 0
KGU1 121658Z 21009KT 25/05 A3026 RMK A01 T02540045  RH  026%=      5-min Rain = 0
KGU1 121659Z 21008KT 26/05 A3026 RMK A01 T02550049  RH  027%=      5-min Rain = 0
KGU1 121700Z 21008KT 26/05 A3026 RMK A01 T02560046  RH  026%=      5-min Rain = 0
KGU1 121701Z 20007KT 26/05 A3026 RMK A01 T02570048  RH  026%=      5-min Rain = 0
KGU1 121702Z 22008KT 26/05 A3026 RMK A01 T02570046  RH  026%=      5-min Rain = 0
KGU1 121703Z 21009KT 26/05 A3025 RMK A01 T02570046  RH  026%=      5-min Rain = 0
KGU1 121704Z 20010KT 26/04 A3025 RMK A01 T02560040  RH  025%=      5-min Rain = 0
KGU1 121705Z 21008KT 26/05 A3025 RMK A01 T02560048  RH  027%=      5-min Rain = 0
KGU1 121706Z 20009KT 26/05 A3025 RMK A01 T02570045  RH  026%=      5-min Rain = 0
KGU1 121707Z 20009KT 26/04 A3025 RMK A01 T02560044  RH  026%=      5-min Rain = 0
KGU1 121708Z 20008KT 25/04 A3025 RMK A01 T02540044  RH  026%=      5-min Rain = 0
KGU1 121709Z 21008KT 26/04 A3025 RMK A01 T02560043  RH  026%=      5-min Rain = 0
KGU1 121710Z 21008KT 26/04 A3025 RMK A01 T02570042  RH  025%=      5-min Rain = 0
KGU1 121711Z 20007KT 26/05 A3025 RMK A01 T02580045  RH  026%=      5-min Rain = 0
KGU1 121712Z 20009KT 26/04 A3025 RMK A01 T02580043  RH  025%=      5-min Rain = 0
KGU1 121713Z 19008KT 26/05 A3025 RMK A01 T02560045  RH  026%=      5-min Rain = 0
KGU1 121714Z 20007KT 26/04 A3025 RMK A01 T02560044  RH  026%=      5-min Rain = 0
KGU1 121715Z 20007KT 26/04 A3025 RMK A01 T02560039  RH  025%=      5-min Rain = 0
KGU1 121716Z 20008KT 26/03 A3025 RMK A01 T02570029  RH  023%=      5-min Rain = 0
KGU1 121717Z 20007KT 26/03 A3025 RMK A01 T02590034  RH  024%=      5-min Rain = 0
KGU1 121718Z 21008KT 26/03 A3025 RMK A01 T02590026  RH  022%=      5-min Rain = 0
KGU1 121719Z 20008KT 26/03 A3025 RMK A01 T02580027  RH  023%=      5-min Rain = 0
KGU1 121720Z 19009KT 26/03 A3025 RMK A01 T02590029  RH  023%=      5-min Rain = 0
KGU1 121721Z 19009KT 26/03 A3025 RMK A01 T02580030  RH  023%=      5-min Rain = 0
KGU1 121722Z 19008KT 26/03 A3025 RMK A01 T02580027  RH  023%=      5-min Rain = 0
KGU1 121723Z 20009KT 26/03 A3025 RMK A01 T02580032  RH  023%=      5-min Rain = 0
KGU1 121724Z 20007KT 26/04 A3025 RMK A01 T02580036  RH  024%=      5-min Rain = 0
KGU1 121725Z 20009KT 26/03 A3025 RMK A01 T02580034  RH  024%=      5-min Rain = 0
KGU1 121726Z 19008KT 26/03 A3025 RMK A01 T02580031  RH  023%=      5-min Rain = 0
KGU1 121727Z 21008KT 26/03 A3025 RMK A01 T02580032  RH  023%=      5-min Rain = 0
KGU1 121728Z 20007KT 26/03 A3025 RMK A01 T02590032  RH  023%=      5-min Rain = 0
KGU1 121729Z 21007KT 26/03 A3025 RMK A01 T02600031  RH  023%=      5-min Rain = 0
KGU1 121730Z 21006KT 26/03 A3025 RMK A01 T02620033  RH  023%=      5-min Rain = 0
KGU1 121731Z 20009KT 26/03 A3025 RMK A01 T02630033  RH  023%=      5-min Rain = 0
KGU1 121732Z 22007KT 26/03 A3025 RMK A01 T02640033  RH  023%=      5-min Rain = 0
KGU1 121733Z 22006KT 26/04 A3025 RMK A01 T02630039  RH  024%=      5-min Rain = 0
KGU1 121734Z 20007KT 27/04 A3025 RMK A01 T02650039  RH  024%=      5-min Rain = 0
KGU1 121735Z 21007KT 27/04 A3025 RMK A01 T02670035  RH  023%=      5-min Rain = 0
KGU1 121736Z 22009KT 27/03 A3025 RMK A01 T02660031  RH  022%=      5-min Rain = 0
KGU1 121737Z 20009KT 26/03 A3025 RMK A01 T02640032  RH  023%=      5-min Rain = 0
KGU1 121738Z 20009KT 26/03 A3025 RMK A01 T02640025  RH  022%=      5-min Rain = 0
KGU1 121739Z 20010KT 26/03 A3025 RMK A01 T02620027  RH  022%=      5-min Rain = 0
KGU1 121740Z 20009KT 26/03 A3025 RMK A01 T02610026  RH  022%=      5-min Rain = 0
KGU1 121741Z 20008KT 26/03 A3025 RMK A01 T02610031  RH  023%=      5-min Rain = 0
KGU1 121742Z 21009KT 26/03 A3025 RMK A01 T02630032  RH  023%=      5-min Rain = 0
KGU1 121743Z 20009KT 26/03 A3025 RMK A01 T02630034  RH  023%=      5-min Rain = 0
KGU1 121744Z 22008KT 26/04 A3025 RMK A01 T02630036  RH  023%=      5-min Rain = 0
KGU1 121745Z 21010KT 26/03 A3024 RMK A01 T02630029  RH  022%=      5-min Rain = 0
KGU1 121746Z 20008KT 26/03 A3024 RMK A01 T02630030  RH  022%=      5-min Rain = 0
KGU1 121747Z 20008KT 26/03 A3024 RMK A01 T02640027  RH  022%=      5-min Rain = 0
KGU1 121748Z 20009KT 27/03 A3024 RMK A01 T02650027  RH  022%=      5-min Rain = 0
KGU1 121749Z 22009KT 27/03 A3024 RMK A01 T02650033  RH  023%=      5-min Rain = 0
KGU1 121750Z 23008KT 27/03 A3024 RMK A01 T02660033  RH  023%=      5-min Rain = 0
KGU1 121751Z 21010KT 27/03 A3024 RMK A01 T02660034  RH  023%=      5-min Rain = 0
KGU1 121752Z 22009KT 27/03 A3024 RMK A01 T02660033  RH  023%=      5-min Rain = 0
KGU1 121753Z 21010KT 27/04 A3024 RMK A01 T02660035  RH  023%=      5-min Rain = 0
KGU1 121754Z 21010KT 27/04 A3024 RMK A01 T02650037  RH  023%=      5-min Rain = 0
KGU1 121755Z 21010KT 27/04 A3024 RMK A01 T02650039  RH  024%=      5-min Rain = 0
KGU1 121756Z 21008KT 27/04 A3024 RMK A01 T02660039  RH  024%=      5-min Rain = 0
KGU1 121757Z 22009KT 27/04 A3024 RMK A01 T02670041  RH  024%=      5-min Rain = 0
KGU1 121758Z 22006KT 27/05 A3024 RMK A01 T02690046  RH  024%=      5-min Rain = 0
KGU1 121759Z 20011KT 27/03 A3024 RMK A01 T02690033  RH  022%=      5-min Rain = 0
KGU1 121800Z 20010KT 27/04 A3024 RMK A01 T02670038  RH  023%=      5-min Rain = 0
KGU1 121801Z 21011KT 27/04 A3024 RMK A01 T02660037  RH  023%=      5-min Rain = 0
KGU1 121802Z 21009KT 27/04 A3024 RMK A01 T02670039  RH  023%=      5-min Rain = 0
KGU1 121803Z 21009KT 27/04 A3024 RMK A01 T02670040  RH  023%=      5-min Rain = 0
KGU1 121804Z 22008KT 27/04 A3024 RMK A01 T02680041  RH  024%=      5-min Rain = 0
KGU1 121805Z 21010KT 27/04 A3024 RMK A01 T02670037  RH  023%=      5-min Rain = 0
KGU1 121806Z 21009G14KT 27/04 A3024 RMK A01 T02660038  RH  023%=      5-min Rain = 0
KGU1 121807Z 21009KT 27/04 A3024 RMK A01 T02660038  RH  023%=      5-min Rain = 0
KGU1 121808Z 21008KT 27/04 A3024 RMK A01 T02650040  RH  024%=      5-min Rain = 0
KGU1 121809Z 20009KT 27/04 A3024 RMK A01 T02660038  RH  023%=      5-min Rain = 0
KGU1 121810Z 21007KT 27/04 A3024 RMK A01 T02670044  RH  024%=      5-min Rain = 0
KGU1 121811Z 20008KT 27/04 A3024 RMK A01 T02690040  RH  023%=      5-min Rain = 0
KGU1 121812Z 20009G14KT 27/04 A3024 RMK A01 T02690038  RH  023%=      5-min Rain = 0
KGU1 121813Z 20010KT 27/04 A3024 RMK A01 T02690038  RH  023%=      5-min Rain = 0
KGU1 121814Z 19009KT 27/04 A3024 RMK A01 T02680038  RH  023%=      5-min Rain = 0
KGU1 121815Z 20010KT 27/04 A3024 RMK A01 T02670038  RH  023%=      5-min Rain = 0
KGU1 121816Z 20010KT 27/04 A3024 RMK A01 T02660036  RH  023%=      5-min Rain = 0
KGU1 121817Z 19007KT 27/04 A3024 RMK A01 T02650037  RH  023%=      5-min Rain = 0
KGU1 121818Z 20010KT 27/04 A3024 RMK A01 T02660035  RH  023%=      5-min Rain = 0
KGU1 121819Z 20007KT 27/04 A3024 RMK A01 T02660037  RH  023%=      5-min Rain = 0
KGU1 121820Z 21008KT 27/04 A3023 RMK A01 T02660035  RH  023%=      5-min Rain = 0
KGU1 121821Z 22009KT 27/04 A3023 RMK A01 T02670040  RH  024%=      5-min Rain = 0
KGU1 121822Z 22007KT 27/04 A3023 RMK A01 T02670039  RH  023%=      5-min Rain = 0
KGU1 121823Z 22010KT 27/04 A3023 RMK A01 T02680042  RH  024%=      5-min Rain = 0
KGU1 121824Z 22011KT 27/04 A3023 RMK A01 T02680039  RH  023%=      5-min Rain = 0
KGU1 121825Z 22009KT 27/04 A3023 RMK A01 T02690043  RH  024%=      5-min Rain = 0
KGU1 121826Z 20012KT 27/04 A3023 RMK A01 T02690038  RH  023%=      5-min Rain = 0
KGU1 121827Z 22010KT 27/04 A3023 RMK A01 T02680036  RH  023%=      5-min Rain = 0
KGU1 121828Z 21010KT 27/04 A3023 RMK A01 T02660038  RH  023%=      5-min Rain = 0
KGU1 121829Z 22009KT 27/04 A3023 RMK A01 T02660040  RH  024%=      5-min Rain = 0
KGU1 121830Z 20010KT 27/04 A3023 RMK A01 T02670040  RH  024%=      5-min Rain = 0
KGU1 121831Z 20010KT 27/04 A3023 RMK A01 T02680035  RH  023%=      5-min Rain = 0
KGU1 121832Z 21010KT 27/04 A3023 RMK A01 T02670036  RH  023%=      5-min Rain = 0
KGU1 121833Z 20011KT 27/04 A3023 RMK A01 T02660037  RH  023%=      5-min Rain = 0
KGU1 121834Z 19011KT 27/04 A3023 RMK A01 T02670036  RH  023%=      5-min Rain = 0
KGU1 121835Z 19011KT 27/03 A3022 RMK A01 T02660033  RH  022%=      5-min Rain = 0
KGU1 121836Z 20012KT 27/04 A3022 RMK A01 T02660035  RH  023%=      5-min Rain = 0
KGU1 121837Z 21012KT 27/04 A3022 RMK A01 T02660035  RH  023%=      5-min Rain = 0
KGU1 121838Z 20009KT 27/04 A3022 RMK A01 T02660037  RH  023%=      5-min Rain = 0
KGU1 121839Z 21010KT 27/04 A3022 RMK A01 T02670038  RH  023%=      5-min Rain = 0
KGU1 121840Z 20011KT 27/04 A3022 RMK A01 T02700036  RH  022%=      5-min Rain = 0
KGU1 121841Z 21010KT 27/04 A3022 RMK A01 T02700035  RH  022%=      5-min Rain = 0
KGU1 121842Z 19012KT 27/04 A3022 RMK A01 T02710035  RH  022%=      5-min Rain = 0
KGU1 121843Z 20009KT 27/04 A3022 RMK A01 T02710036  RH  022%=      5-min Rain = 0
KGU1 121844Z 20010KT 27/04 A3022 RMK A01 T02710037  RH  022%=      5-min Rain = 0
KGU1 121845Z 19010KT 27/03 A3022 RMK A01 T02710034  RH  022%=      5-min Rain = 0
KGU1 121846Z 20010KT 27/03 A3022 RMK A01 T02700032  RH  022%=      5-min Rain = 0
KGU1 121847Z 20008KT 27/04 A3022 RMK A01 T02700036  RH  022%=      5-min Rain = 0
KGU1 121848Z 21009KT 27/04 A3022 RMK A01 T02730037  RH  022%=      5-min Rain = 0
KGU1 121849Z 22009KT 27/04 A3022 RMK A01 T02740037  RH  022%=      5-min Rain = 0
KGU1 121850Z 21009KT 27/04 A3022 RMK A01 T02740041  RH  023%=      5-min Rain = 0
KGU1 121851Z 22008KT 28/04 A3022 RMK A01 T02760039  RH  022%=      5-min Rain = 0
KGU1 121852Z 20011G16KT 28/03 A3022 RMK A01 T02750033  RH  021%=      5-min Rain = 0
KGU1 121853Z 20012KT 27/04 A3021 RMK A01 T02740036  RH  022%=      5-min Rain = 0
KGU1 121854Z 21012KT 27/03 A3021 RMK A01 T02740031  RH  021%=      5-min Rain = 0
KGU1 121855Z 20010KT 27/03 A3021 RMK A01 T02720034  RH  022%=      5-min Rain = 0
KGU1 121856Z 21007KT 27/04 A3021 RMK A01 T02730038  RH  022%=      5-min Rain = 0
KGU1 121857Z 20011KT 28/03 A3021 RMK A01 T02750034  RH  022%=      5-min Rain = 0
KGU1 121858Z 21011KT 27/03 A3021 RMK A01 T02740033  RH  022%=      5-min Rain = 0
KGU1 121859Z 21009KT 27/04 A3021 RMK A01 T02740037  RH  022%=      5-min Rain = 0
KGU1 121900Z 20011KT 28/04 A3021 RMK A01 T02750037  RH  022%=      5-min Rain = 0
KGU1 121901Z 20011KT 27/03 A3021 RMK A01 T02740032  RH  021%=      5-min Rain = 0
KGU1 121902Z 19011KT 27/03 A3021 RMK A01 T02720034  RH  022%=      5-min Rain = 0
KGU1 121903Z 19010KT 27/03 A3021 RMK A01 T02720033  RH  022%=      5-min Rain = 0
KGU1 121904Z 19011KT 27/04 A3021 RMK A01 T02720035  RH  022%=      5-min Rain = 0
KGU1 121905Z 22011KT 27/04 A3021 RMK A01 T02740036  RH  022%=      5-min Rain = 0
KGU1 121906Z 21013KT 27/03 A3021 RMK A01 T02740034  RH  022%=      5-min Rain = 0
KGU1 121907Z 21008KT 27/04 A3021 RMK A01 T02740038  RH  022%=      5-min Rain = 0
KGU1 121908Z 21011G17KT 28/04 A3021 RMK A01 T02760037  RH  022%=      5-min Rain = 0
KGU1 121909Z 21014KT 28/03 A302 RMK A01 T02780033  RH  021%=      5-min Rain = 0
KGU1 121910Z 20012KT 28/03 A302 RMK A01 T02770031  RH  021%=      5-min Rain = 0
KGU1 121911Z 20011KT 28/03 A302 RMK A01 T02770034  RH  021%=      5-min Rain = 0
KGU1 121912Z 20010KT 28/03 A302 RMK A01 T02770032  RH  021%=      5-min Rain = 0
KGU1 121913Z 20009KT 28/04 A302 RMK A01 T02770037  RH  022%=      5-min Rain = 0
KGU1 121914Z 20012KT 28/04 A302 RMK A01 T02780035  RH  021%=      5-min Rain = 0
KGU1 121915Z 20012KT 28/03 A302 RMK A01 T02770032  RH  021%=      5-min Rain = 0
KGU1 121916Z 20011KT 28/04 A302 RMK A01 T02760035  RH  022%=      5-min Rain = 0
KGU1 121917Z 20009KT 28/03 A302 RMK A01 T02770034  RH  021%=      5-min Rain = 0
KGU1 121918Z 21012KT 28/03 A302 RMK A01 T02790033  RH  021%=      5-min Rain = 0
KGU1 121919Z 21011KT 28/03 A302 RMK A01 T02780029  RH  020%=      5-min Rain = 0
KGU1 121920Z 21011KT 28/03 A302 RMK A01 T02770032  RH  021%=      5-min Rain = 0
KGU1 121921Z 20009KT 28/03 A302 RMK A01 T02780030  RH  021%=      5-min Rain = 0
KGU1 121922Z 20010KT 28/03 A302 RMK A01 T02780032  RH  021%=      5-min Rain = 0
KGU1 121923Z 21012KT 28/03 A302 RMK A01 T02790029  RH  020%=      5-min Rain = 0
KGU1 121924Z 21012KT 28/03 A302 RMK A01 T02790029  RH  020%=      5-min Rain = 0
KGU1 121925Z 21011KT 28/03 A302 RMK A01 T02770030  RH  021%=      5-min Rain = 0
KGU1 121926Z 20009KT 28/03 A302 RMK A01 T02770032  RH  021%=      5-min Rain = 0
KGU1 121927Z 21010KT 28/03 A302 RMK A01 T02780032  RH  021%=      5-min Rain = 0
KGU1 121928Z 21012KT 28/03 A3019 RMK A01 T02780032  RH  021%=      5-min Rain = 0
KGU1 121929Z 21011KT 28/03 A3019 RMK A01 T02780030  RH  021%=      5-min Rain = 0
KGU1 121930Z 20013KT 28/03 A3019 RMK A01 T02770031  RH  021%=      5-min Rain = 0
KGU1 121931Z 19011KT 28/03 A3019 RMK A01 T02770029  RH  021%=      5-min Rain = 0
KGU1 121932Z 19010KT 28/03 A3019 RMK A01 T02760027  RH  020%=      5-min Rain = 0
KGU1 121933Z 19010KT 27/03 A3019 RMK A01 T02740028  RH  021%=      5-min Rain = 0
KGU1 121934Z 19010KT 28/03 A3019 RMK A01 T02750031  RH  021%=      5-min Rain = 0
KGU1 121935Z 20012KT 28/03 A3019 RMK A01 T02760032  RH  021%=      5-min Rain = 0
KGU1 121936Z 22009KT 28/03 A3019 RMK A01 T02790034  RH  021%=      5-min Rain = 0
KGU1 121937Z 22010KT 28/03 A3019 RMK A01 T02820034  RH  021%=      5-min Rain = 0
KGU1 121938Z 21011KT 28/03 A3019 RMK A01 T02820031  RH  020%=      5-min Rain = 0
KGU1 121939Z 22008KT 28/03 A3019 RMK A01 T02810034  RH  021%=      5-min Rain = 0
KGU1 121940Z 22008KT 28/03 A3019 RMK A01 T02810034  RH  021%=      5-min Rain = 0
KGU1 121941Z 21011KT 28/03 A3018 RMK A01 T02830033  RH  020%=      5-min Rain = 0
KGU1 121942Z 21011KT 28/03 A3018 RMK A01 T02820030  RH  020%=      5-min Rain = 0
KGU1 121943Z 21010KT 28/03 A3018 RMK A01 T02820032  RH  020%=      5-min Rain = 0
KGU1 121944Z 21011KT 28/03 A3018 RMK A01 T02820029  RH  020%=      5-min Rain = 0
KGU1 121945Z 21007KT 28/03 A3018 RMK A01 T02810030  RH  020%=      5-min Rain = 0
KGU1 121946Z 20009KT 28/03 A3018 RMK A01 T02820031  RH  020%=      5-min Rain = 0
KGU1 121947Z 20011KT 28/03 A3018 RMK A01 T02830026  RH  019%=      5-min Rain = 0
KGU1 121948Z 20010KT 28/03 A3018 RMK A01 T02810028  RH  020%=      5-min Rain = 0
KGU1 121949Z 21009KT 28/03 A3018 RMK A01 T02830031  RH  020%=      5-min Rain = 0
KGU1 121950Z 21009KT 28/02 A3018 RMK A01 T02830023  RH  019%=      5-min Rain = 0
KGU1 121951Z 20012KT 28/02 A3018 RMK A01 T02810024  RH  019%=      5-min Rain = 0
KGU1 121952Z 20008KT 28/03 A3018 RMK A01 T02790028  RH  020%=      5-min Rain = 0
KGU1 121953Z 21010KT 28/03 A3018 RMK A01 T02780027  RH  020%=      5-min Rain = 0
KGU1 121954Z 20012KT 28/03 A3018 RMK A01 T02770029  RH  020%=      5-min Rain = 0
KGU1 121955Z 19012G18KT 28/03 A3018 RMK A01 T02780028  RH  020%=      5-min Rain = 0
KGU1 121956Z 21013KT 28/03 A3018 RMK A01 T02780029  RH  020%=      5-min Rain = 0
KGU1 121957Z 21010KT 28/03 A3018 RMK A01 T02780029  RH  020%=      5-min Rain = 0
KGU1 121958Z 20010KT 28/03 A3018 RMK A01 T02790028  RH  020%=      5-min Rain = 0
KGU1 121959Z 20009KT 28/03 A3018 RMK A01 T02790029  RH  020%=      5-min Rain = 0
KGU1 122000Z 20012KT 28/03 A3017 RMK A01 T02820029  RH  020%=      5-min Rain = 0
KGU1 122001Z 20009G14KT 28/03 A3017 RMK A01 T02830030  RH  020%=      5-min Rain = 0
KGU1 122002Z 20010G15KT 28/03 A3017 RMK A01 T02840028  RH  020%=      5-min Rain = 0
KGU1 122003Z 20011G16KT 29/03 A3017 RMK A01 T02860033  RH  020%=      5-min Rain = 0
KGU1 122004Z 20013KT 29/03 A3017 RMK A01 T02850028  RH  019%=      5-min Rain = 0
KGU1 122005Z 20011KT 28/03 A3017 RMK A01 T02840027  RH  019%=      5-min Rain = 0
KGU1 122006Z 19010KT 28/03 A3017 RMK A01 T02830027  RH  019%=      5-min Rain = 0
KGU1 122007Z 18012KT 28/03 A3017 RMK A01 T02820026  RH  019%=      5-min Rain = 0
KGU1 122008Z 21011KT 28/03 A3017 RMK A01 T02820030  RH  020%=      5-min Rain = 0
KGU1 122009Z 22010KT 28/03 A3017 RMK A01 T02840032  RH  020%=      5-min Rain = 0
KGU1 122010Z 21010KT 29/02 A3017 RMK A01 T02850024  RH  019%=      5-min Rain = 0
KGU1 122011Z 22008KT 29/03 A3017 RMK A01 T02850025  RH  019%=      5-min Rain = 0
KGU1 122012Z 21012KT 28/03 A3017 RMK A01 T02840025  RH  019%=      5-min Rain = 0
KGU1 122013Z 20012KT 28/02 A3017 RMK A01 T02830022  RH  019%=      5-min Rain = 0
KGU1 122014Z 21011G16KT 28/03 A3017 RMK A01 T02830027  RH  020%=      5-min Rain = 0
KGU1 122015Z 20014KT 28/02 A3017 RMK A01 T02830024  RH  019%=      5-min Rain = 0
KGU1 122016Z 19010KT 28/02 A3017 RMK A01 T02830024  RH  019%=      5-min Rain = 0
KGU1 122017Z 19010KT 28/03 A3017 RMK A01 T02820027  RH  020%=      5-min Rain = 0
KGU1 122018Z 19011KT 28/03 A3017 RMK A01 T02820028  RH  020%=      5-min Rain = 0
KGU1 122019Z 19013KT 28/03 A3017 RMK A01 T02830027  RH  019%=      5-min Rain = 0
KGU1 122020Z 19010KT 28/03 A3017 RMK A01 T02840030  RH  020%=      5-min Rain = 0
KGU1 122021Z 18011KT 29/02 A3016 RMK A01 T02850023  RH  019%=      5-min Rain = 0
KGU1 122022Z 20010KT 29/03 A3016 RMK A01 T02860032  RH  020%=      5-min Rain = 0
KGU1 122023Z 19014KT 29/03 A3016 RMK A01 T02890027  RH  019%=      5-min Rain = 0
KGU1 122024Z 18011KT 29/02 A3016 RMK A01 T02870023  RH  019%=      5-min Rain = 0
KGU1 122025Z 17008KT 28/03 A3016 RMK A01 T02840027  RH  019%=      5-min Rain = 0
KGU1 122026Z 19012KT 28/03 A3016 RMK A01 T02840027  RH  019%=      5-min Rain = 0
KGU1 122027Z 20010KT 29/03 A3016 RMK A01 T02860026  RH  019%=      5-min Rain = 0
KGU1 122028Z 20010KT 29/03 A3016 RMK A01 T02870028  RH  019%=      5-min Rain = 0
KGU1 122029Z 19012KT 29/03 A3016 RMK A01 T02870028  RH  019%=      5-min Rain = 0
KGU1 122030Z 19013KT 29/02 A3016 RMK A01 T02880024  RH  019%=      5-min Rain = 0
KGU1 122031Z 19014KT 29/02 A3016 RMK A01 T02870022  RH  018%=      5-min Rain = 0
KGU1 122032Z 19013KT 29/02 A3016 RMK A01 T02860023  RH  019%=      5-min Rain = 0
KGU1 122033Z 19007KT 28/02 A3016 RMK A01 T02840023  RH  019%=      5-min Rain = 0
KGU1 122034Z 19009G16KT 28/03 A3016 RMK A01 T02840027  RH  019%=      5-min Rain = 0
KGU1 122035Z 20013KT 29/03 A3016 RMK A01 T02860025  RH  019%=      5-min Rain = 0
KGU1 122036Z 18012KT 29/02 A3016 RMK A01 T02860021  RH  018%=      5-min Rain = 0
KGU1 122037Z 18012KT 29/02 A3016 RMK A01 T02850021  RH  019%=      5-min Rain = 0
KGU1 122038Z 19011KT 28/02 A3016 RMK A01 T02840021  RH  019%=      5-min Rain = 0
KGU1 122039Z 19014KT 28/02 A3016 RMK A01 T02840022  RH  019%=      5-min Rain = 0
KGU1 122040Z 20014KT 28/02 A3016 RMK A01 T02830022  RH  019%=      5-min Rain = 0
KGU1 122041Z 20011KT 28/03 A3016 RMK A01 T02820027  RH  020%=      5-min Rain = 0
KGU1 122042Z 21009KT 28/03 A3016 RMK A01 T02830027  RH  019%=      5-min Rain = 0
KGU1 122043Z 19008G13KT 29/03 A3016 RMK A01 T02850027  RH  019%=      5-min Rain = 0
KGU1 122044Z 18014KT 29/02 A3015 RMK A01 T02860021  RH  018%=      5-min Rain = 0
KGU1 122045Z 19013KT 29/02 A3015 RMK A01 T02850022  RH  019%=      5-min Rain = 0
KGU1 122046Z 18013KT 28/02 A3015 RMK A01 T02830021  RH  019%=      5-min Rain = 0
KGU1 122047Z 17013G18KT 28/02 A3015 RMK A01 T02840022  RH  019%=      5-min Rain = 0
KGU1 122048Z 19013KT 29/02 A3015 RMK A01 T02850021  RH  018%=      5-min Rain = 0
KGU1 122049Z 21009KT 29/02 A3015 RMK A01 T02860020  RH  018%=      5-min Rain = 0
KGU1 122050Z 24011KT 29/02 A3015 RMK A01 T02860020  RH  018%=      5-min Rain = 0
KGU1 122051Z 24010KT 28/02 A3015 RMK A01 T02840019  RH  018%=      5-min Rain = 0
KGU1 122052Z 24010KT 28/02 A3015 RMK A01 T02830018  RH  018%=      5-min Rain = 0
KGU1 122053Z 24010KT 28/02 A3015 RMK A01 T02820016  RH  018%=      5-min Rain = 0
KGU1 122054Z 25010KT 28/02 A3015 RMK A01 T02820015  RH  018%=      5-min Rain = 0
KGU1 122055Z 25008KT 28/01 A3015 RMK A01 T02810012  RH  018%=      5-min Rain = 0
KGU1 122056Z 22007KT 28/02 A3015 RMK A01 T02820022  RH  019%=      5-min Rain = 0
KGU1 122057Z 19013KT 28/02 A3015 RMK A01 T02840021  RH  019%=      5-min Rain = 0
KGU1 122058Z 21013KT 28/02 A3015 RMK A01 T02830019  RH  018%=      5-min Rain = 0
KGU1 122059Z 22010KT 28/02 A3015 RMK A01 T02820017  RH  018%=      5-min Rain = 0
KGU1 122100Z 22009KT 28/02 A3015 RMK A01 T02820018  RH  018%=      5-min Rain = 0
KGU1 122101Z 22008KT 28/03 A3015 RMK A01 T02820025  RH  019%=      5-min Rain = 0
KGU1 122102Z 22007KT 28/03 A3015 RMK A01 T02820029  RH  020%=      5-min Rain = 0
KGU1 122103Z 23006KT 28/03 A3015 RMK A01 T02840025  RH  019%=      5-min Rain = 0
KGU1 122104Z 22009KT 29/02 A3015 RMK A01 T02860023  RH  019%=      5-min Rain = 0
KGU1 122105Z 22009KT 29/02 A3015 RMK A01 T02850022  RH  019%=      5-min Rain = 0
KGU1 122106Z 22009KT 28/02 A3015 RMK A01 T02840022  RH  019%=      5-min Rain = 0
KGU1 122107Z 23010KT 28/02 A3015 RMK A01 T02830018  RH  018%=      5-min Rain = 0
KGU1 122108Z 24007G13KT 28/02 A3015 RMK A01 T02810023  RH  019%=      5-min Rain = 0
KGU1 122109Z 22007KT 28/03 A3015 RMK A01 T02810025  RH  019%=      5-min Rain = 0
KGU1 122110Z 22009KT 28/02 A3015 RMK A01 T02810023  RH  019%=      5-min Rain = 0
KGU1 122111Z 22011KT 28/02 A3015 RMK A01 T02810020  RH  019%=      5-min Rain = 0
KGU1 122112Z 20010KT 28/02 A3015 RMK A01 T02810023  RH  019%=      5-min Rain = 0
KGU1 122113Z 20009KT 28/03 A3015 RMK A01 T02830025  RH  019%=      5-min Rain = 0
KGU1 122114Z 22010KT 29/02 A3015 RMK A01 T02850019  RH  018%=      5-min Rain = 0
KGU1 122115Z 23007KT 28/02 A3015 RMK A01 T02840018  RH  018%=      5-min Rain = 0
KGU1 122116Z 21006KT 28/02 A3015 RMK A01 T02830020  RH  019%=      5-min Rain = 0
KGU1 122117Z 22010KT 28/02 A3014 RMK A01 T02820019  RH  018%=      5-min Rain = 0
KGU1 122118Z 23011KT 28/02 A3014 RMK A01 T02800018  RH  019%=      5-min Rain = 0
KGU1 122119Z 22012KT 28/02 A3014 RMK A01 T02790018  RH  019%=      5-min Rain = 0
KGU1 122120Z 22012KT 28/02 A3014 RMK A01 T02790017  RH  019%=      5-min Rain = 0
KGU1 122121Z 23009KT 28/02 A3014 RMK A01 T02810017  RH  018%=      5-min Rain = 0
KGU1 122122Z 23011KT 28/02 A3014 RMK A01 T02820017  RH  018%=      5-min Rain = 0
KGU1 122123Z 22012KT 28/02 A3014 RMK A01 T02830017  RH  018%=      5-min Rain = 0
KGU1 122124Z 21010KT 28/02 A3014 RMK A01 T02840018  RH  018%=      5-min Rain = 0
KGU1 122125Z 21011KT 29/02 A3014 RMK A01 T02850019  RH  018%=      5-min Rain = 0
KGU1 122126Z 21010G15KT 29/02 A3014 RMK A01 T02860019  RH  018%=      5-min Rain = 0
KGU1 122127Z 22011KT 29/02 A3014 RMK A01 T02850016  RH  018%=      5-min Rain = 0
KGU1 122128Z 23007KT 29/02 A3014 RMK A01 T02850018  RH  018%=      5-min Rain = 0
KGU1 122129Z 21008KT 29/02 A3014 RMK A01 T02860021  RH  018%=      5-min Rain = 0
KGU1 122130Z 21011KT 29/01 A3014 RMK A01 T02870014  RH  017%=      5-min Rain = 0
KGU1 122131Z 22010KT 29/02 A3014 RMK A01 T02870018  RH  018%=      5-min Rain = 0
KGU1 122132Z 23008KT 29/02 A3014 RMK A01 T02890019  RH  018%=      5-min Rain = 0
KGU1 122133Z 25008KT 29/01 A3014 RMK A01 T02900011  RH  017%=      5-min Rain = 0
KGU1 122134Z 22009KT 29/01 A3014 RMK A01 T02890013  RH  017%=      5-min Rain = 0
KGU1 122135Z 23009KT 29/01 A3014 RMK A01 T02870010  RH  017%=      5-min Rain = 0
KGU1 122136Z 22009KT 29/02 A3014 RMK A01 T02870015  RH  017%=      5-min Rain = 0
KGU1 122137Z 23008KT 29/02 A3014 RMK A01 T02880015  RH  017%=      5-min Rain = 0
KGU1 122138Z 22008KT 29/01 A3014 RMK A01 T02900013  RH  017%=      5-min Rain = 0
KGU1 122139Z 22007KT 29/01 A3014 RMK A01 T02890010  RH  017%=      5-min Rain = 0
KGU1 122140Z 21010KT 29/01 A3014 RMK A01 T02880010  RH  017%=      5-min Rain = 0
KGU1 122141Z 22008KT 29/02 A3014 RMK A01 T02880016  RH  017%=      5-min Rain = 0
KGU1 122142Z 22011KT 29/01 A3014 RMK A01 T02890011  RH  017%=      5-min Rain = 0
KGU1 122143Z 22012KT 29/01 A3014 RMK A01 T02880008  RH  017%=      5-min Rain = 0
KGU1 122144Z 21009KT 29/01 A3014 RMK A01 T02870008  RH  017%=      5-min Rain = 0
KGU1 122145Z 21011KT 29/01 A3013 RMK A01 T02860009  RH  017%=      5-min Rain = 0
KGU1 122146Z 22010KT 29/01 A3013 RMK A01 T02860006  RH  016%=      5-min Rain = 0
KGU1 122147Z 22010KT 29/01 A3013 RMK A01 T02860012  RH  017%=      5-min Rain = 0
KGU1 122148Z 21010KT 29/01 A3013 RMK A01 T02880006  RH  016%=      5-min Rain = 0
KGU1 122149Z 20007KT 29/01 A3013 RMK A01 T02870009  RH  017%=      5-min Rain = 0
KGU1 122150Z 23008KT 29/01 A3013 RMK A01 T02890012  RH  017%=      5-min Rain = 0
KGU1 122151Z 21008G13KT 29/01 A3013 RMK A01 T02890006  RH  016%=      5-min Rain = 0
KGU1 122152Z 22012KT 29/01 A3013 RMK A01 T02890006  RH  016%=      5-min Rain = 0
KGU1 122153Z 23008KT 29/01 A3013 RMK A01 T02890006  RH  016%=      5-min Rain = 0
KGU1 122154Z 23006KT 29/01 A3013 RMK A01 T02900012  RH  017%=      5-min Rain = 0
KGU1 122155Z 22009KT 29/00 A3013 RMK A01 T02910003  RH  016%=      5-min Rain = 0
KGU1 122156Z 22008KT 29/01 A3013 RMK A01 T02900007  RH  016%=      5-min Rain = 0
KGU1 122157Z 22009KT 29/01 A3013 RMK A01 T02920010  RH  017%=      5-min Rain = 0
KGU1 122158Z 22009KT 29/01 A3013 RMK A01 T02920006  RH  016%=      5-min Rain = 0
KGU1 122159Z 23009KT 29/00 A3013 RMK A01 T02910004  RH  016%=      5-min Rain = 0
KGU1 122200Z 22008KT 29/00 A3013 RMK A01 T02900004  RH  016%=      5-min Rain = 0
KGU1 122201Z 22010G15KT 29/00 A3013 RMK A01 T02890004  RH  016%=      5-min Rain = 0
KGU1 122202Z 22009KT 29/01 A3013 RMK A01 T02890006  RH  016%=      5-min Rain = 0
KGU1 122203Z 21009KT 29/01 A3013 RMK A01 T02900005  RH  016%=      5-min Rain = 0
KGU1 122204Z 22009KT 29/00 A3013 RMK A01 T02900004  RH  016%=      5-min Rain = 0
KGU1 122205Z 23010KT 29/01 A3013 RMK A01 T02910007  RH  016%=      5-min Rain = 0
KGU1 122206Z 22011KT 29/00 A3013 RMK A01 T02900001  RH  016%=      5-min Rain = 0
KGU1 122207Z 21008KT 29/M00 A3013 RMK A01 T02891003  RH  015%=      5-min Rain = 0
KGU1 122208Z 19008KT 29/M00 A3013 RMK A01 T02881001  RH  016%=      5-min Rain = 0
KGU1 122209Z 22009KT 29/00 A3013 RMK A01 T02880000  RH  016%=      5-min Rain = 0
KGU1 122210Z 24010KT 29/00 A3013 RMK A01 T02890000  RH  016%=      5-min Rain = 0
KGU1 122211Z 24010KT 29/00 A3013 RMK A01 T02890003  RH  016%=      5-min Rain = 0
KGU1 122212Z 22010KT 29/00 A3013 RMK A01 T02890001  RH  016%=      5-min Rain = 0
KGU1 122213Z 22010KT 29/M00 A3013 RMK A01 T02901002  RH  015%=      5-min Rain = 0
KGU1 122214Z 22010KT 29/00 A3013 RMK A01 T02890000  RH  016%=      5-min Rain = 0
KGU1 122215Z 22009KT 29/00 A3013 RMK A01 T02890002  RH  016%=      5-min Rain = 0
KGU1 122216Z 22009KT 29/00 A3013 RMK A01 T02900004  RH  016%=      5-min Rain = 0
KGU1 122217Z 23010KT 29/00 A3013 RMK A01 T02910001  RH  015%=      5-min Rain = 0
KGU1 122218Z 22010KT 29/00 A3013 RMK A01 T02910000  RH  015%=      5-min Rain = 0
KGU1 122219Z 22009KT 29/00 A3013 RMK A01 T02910001  RH  016%=      5-min Rain = 0
KGU1 122220Z 24008KT 29/00 A3013 RMK A01 T02910002  RH  016%=      5-min Rain = 0
KGU1 122221Z 24010KT 29/M00 A3013 RMK A01 T02911003  RH  015%=      5-min Rain = 0
KGU1 122222Z 23006KT 29/00 A3013 RMK A01 T029000-0  RH  015%=      5-min Rain = 0
KGU1 122223Z 23009KT 29/M00 A3013 RMK A01 T02901001  RH  015%=      5-min Rain = 0
KGU1 122224Z 23009KT 29/00 A3013 RMK A01 T029000-0  RH  015%=      5-min Rain = 0
KGU1 122225Z 22010KT 29/M00 A3013 RMK A01 T02891003  RH  015%=      5-min Rain = 0
KGU1 122226Z 22008KT 29/M00 A3013 RMK A01 T02881001  RH  016%=      5-min Rain = 0
KGU1 122227Z 22011KT 29/M00 A3013 RMK A01 T02881003  RH  015%=      5-min Rain = 0
KGU1 122228Z 22010KT 29/M00 A3013 RMK A01 T02881001  RH  016%=      5-min Rain = 0
KGU1 122229Z 23010KT 29/M00 A3013 RMK A01 T02881002  RH  015%=      5-min Rain = 0
KGU1 122230Z 23010KT 29/M01 A3013 RMK A01 T02871006  RH  015%=      5-min Rain = 0
KGU1 122231Z 23011KT 29/M00 A3013 RMK A01 T02871003  RH  015%=      5-min Rain = 0
KGU1 122232Z 24009KT 29/M00 A3013 RMK A01 T02871002  RH  015%=      5-min Rain = 0
KGU1 122233Z 22009KT 29/M00 A3013 RMK A01 T02871004  RH  015%=      5-min Rain = 0
KGU1 122234Z 21009KT 29/M00 A3013 RMK A01 T02861002  RH  016%=      5-min Rain = 0
KGU1 122235Z 22009KT 29/M00 A3013 RMK A01 T02871003  RH  015%=      5-min Rain = 0
KGU1 122236Z 21009KT 29/M00 A3013 RMK A01 T02861004  RH  015%=      5-min Rain = 0
KGU1 122237Z 21008KT 29/M00 A3012 RMK A01 T02861001  RH  016%=      5-min Rain = 0
KGU1 122238Z 20007KT 29/M00 A3012 RMK A01 T02871002  RH  016%=      5-min Rain = 0
KGU1 122239Z 21009KT 29/M00 A3012 RMK A01 T02881001  RH  016%=      5-min Rain = 0
KGU1 122240Z 25009KT 29/M00 A3012 RMK A01 T02881003  RH  015%=      5-min Rain = 0
KGU1 122241Z 24007KT 29/M00 A3012 RMK A01 T02871004  RH  015%=      5-min Rain = 0
KGU1 122242Z 24007KT 29/01 A3012 RMK A01 T02870006  RH  016%=      5-min Rain = 0
KGU1 122243Z 24008KT 29/M00 A3012 RMK A01 T02881004  RH  015%=      5-min Rain = 0
KGU1 122244Z 22006KT 29/00 A3012 RMK A01 T02880002  RH  016%=      5-min Rain = 0
KGU1 122245Z 22006KT 29/00 A3012 RMK A01 T02890002  RH  016%=      5-min Rain = 0
KGU1 122246Z 22005KT 29/00 A3012 RMK A01 T028900-0  RH  015%=      5-min Rain = 0
KGU1 122247Z 22006KT 29/00 A3012 RMK A01 T02890002  RH  016%=      5-min Rain = 0
KGU1 122248Z 22006KT 29/00 A3012 RMK A01 T02890000  RH  016%=      5-min Rain = 0
KGU1 122249Z 21008KT 29/M00 A3012 RMK A01 T02891002  RH  015%=      5-min Rain = 0
KGU1 122250Z 23007KT 29/M00 A3012 RMK A01 T02881003  RH  015%=      5-min Rain = 0
KGU1 122251Z 24007KT 29/M00 A3012 RMK A01 T02871004  RH  015%=      5-min Rain = 0
KGU1 122252Z 24005KT 29/00 A3012 RMK A01 T02870004  RH  016%=      5-min Rain = 0
KGU1 122253Z 22006KT 29/00 A3012 RMK A01 T02880003  RH  016%=      5-min Rain = 0
KGU1 122254Z 23007KT 29/M00 A3012 RMK A01 T02881002  RH  015%=      5-min Rain = 0
KGU1 122255Z 22007KT 29/M00 A3012 RMK A01 T02871002  RH  015%=      5-min Rain = 0
KGU1 122256Z 21008KT 29/M00 A3012 RMK A01 T02871002  RH  015%=      5-min Rain = 0
KGU1 122257Z 24006KT 29/M00 A3012 RMK A01 T02861004  RH  015%=      5-min Rain = 0
KGU1 122258Z 24009KT 29/M00 A3012 RMK A01 T02861002  RH  016%=      5-min Rain = 0
KGU1 122259Z 24010KT 29/M00 A3012 RMK A01 T02861003  RH  015%=      5-min Rain = 0
KGU1 122300Z 25011KT 29/M01 A3012 RMK A01 T02861006  RH  015%=      5-min Rain = 0
KGU1 122301Z 24005KT 29/M00 A3012 RMK A01 T02851004  RH  015%=      5-min Rain = 0
KGU1 122302Z 23010KT 29/M00 A3012 RMK A01 T02851002  RH  016%=      5-min Rain = 0
KGU1 122303Z 23008KT 29/M00 A3012 RMK A01 T02851002  RH  016%=      5-min Rain = 0
KGU1 122304Z 22006KT 29/00 A3012 RMK A01 T02850001  RH  016%=      5-min Rain = 0
KGU1 122305Z 21007KT 29/M00 A3012 RMK A01 T02861003  RH  015%=      5-min Rain = 0
KGU1 122306Z 21005KT 29/M00 A3012 RMK A01 T02861004  RH  015%=      5-min Rain = 0
KGU1 122307Z 21004KT 29/M01 A3012 RMK A01 T02851005  RH  015%=      5-min Rain = 0
KGU1 122308Z 23004KT 29/00 A3012 RMK A01 T02850002  RH  016%=      5-min Rain = 0
KGU1 122309Z 23006KT 29/00 A3012 RMK A01 T02860003  RH  016%=      5-min Rain = 0
KGU1 122310Z 24007KT 29/00 A3012 RMK A01 T02860002  RH  016%=      5-min Rain = 0
KGU1 122311Z 23006KT 29/00 A3012 RMK A01 T02860004  RH  016%=      5-min Rain = 0
KGU1 122312Z 22008KT 29/00 A3012 RMK A01 T02870004  RH  016%=      5-min Rain = 0
KGU1 122313Z 20007KT 29/00 A3012 RMK A01 T02870001  RH  016%=      5-min Rain = 0
KGU1 122314Z 19005KT 29/M00 A3012 RMK A01 T02861002  RH  016%=      5-min Rain = 0
KGU1 122315Z 19006KT 29/M00 A3012 RMK A01 T02851001  RH  016%=      5-min Rain = 0
KGU1 122316Z 19008KT 28/M00 A3012 RMK A01 T02841004  RH  016%=      5-min Rain = 0
KGU1 122317Z 21009KT 28/M00 A3011 RMK A01 T02831003  RH  016%=      5-min Rain = 0
KGU1 122318Z 21009KT 28/M00 A3012 RMK A01 T02831002  RH  016%=      5-min Rain = 0
KGU1 122319Z 22007KT 28/M00 A3012 RMK A01 T02841003  RH  016%=      5-min Rain = 0
KGU1 122320Z 20008KT 28/M01 A3012 RMK A01 T02841005  RH  015%=      5-min Rain = 0
KGU1 122321Z 22009KT 29/M01 A3011 RMK A01 T02851005  RH  015%=      5-min Rain = 0
KGU1 122322Z 22007KT 29/M01 A3011 RMK A01 T02851005  RH  015%=      5-min Rain = 0
KGU1 122323Z 21006KT 29/M01 A3011 RMK A01 T02851005  RH  015%=      5-min Rain = 0
KGU1 122324Z 21006KT 29/M00 A3011 RMK A01 T02851004  RH  015%=      5-min Rain = 0
KGU1 122325Z 22007KT 29/M00 A3011 RMK A01 T02861004  RH  015%=      5-min Rain = 0
KGU1 122326Z 22007KT 29/M00 A3011 RMK A01 T02861003  RH  015%=      5-min Rain = 0
KGU1 122327Z 21005KT 29/M00 A3011 RMK A01 T02861003  RH  015%=      5-min Rain = 0
KGU1 122328Z 21007KT 29/M00 A3011 RMK A01 T02861004  RH  015%=      5-min Rain = 0
KGU1 122329Z 21007KT 29/M00 A3011 RMK A01 T02861003  RH  015%=      5-min Rain = 0
KGU1 122330Z 21008KT 29/M01 A3011 RMK A01 T02861006  RH  015%=      5-min Rain = 0
KGU1 122331Z 21007KT 29/M01 A3011 RMK A01 T02851007  RH  015%=      5-min Rain = 0
KGU1 122332Z 22006KT 29/M00 A3011 RMK A01 T02851003  RH  016%=      5-min Rain = 0
KGU1 122333Z 22005KT 29/M00 A3011 RMK A01 T02851004  RH  015%=      5-min Rain = 0
KGU1 122334Z 23005KT 29/M00 A3011 RMK A01 T02851003  RH  016%=      5-min Rain = 0
KGU1 122335Z 23007KT 29/M01 A3011 RMK A01 T02851006  RH  015%=      5-min Rain = 0
KGU1 122336Z 21005KT 29/M01 A3011 RMK A01 T02851007  RH  015%=      5-min Rain = 0
KGU1 122337Z 22006KT 29/M01 A3011 RMK A01 T02851005  RH  015%=      5-min Rain = 0
KGU1 122338Z 23005KT 28/M01 A3011 RMK A01 T02841007  RH  015%=      5-min Rain = 0
KGU1 122339Z 21005KT 28/M01 A3011 RMK A01 T02841006  RH  015%=      5-min Rain = 0
KGU1 122340Z 22008KT 28/M00 A3011 RMK A01 T02841003  RH  016%=      5-min Rain = 0
KGU1 122341Z 23007KT 28/M00 A3011 RMK A01 T02841004  RH  016%=      5-min Rain = 0
KGU1 122342Z 24008KT 28/M01 A3011 RMK A01 T02831009  RH  015%=      5-min Rain = 0
KGU1 122343Z 25006KT 28/M01 A3011 RMK A01 T02831007  RH  015%=      5-min Rain = 0
KGU1 122344Z 23007KT 28/M01 A3011 RMK A01 T02831006  RH  015%=      5-min Rain = 0
KGU1 122345Z 23006KT 28/M01 A3011 RMK A01 T02831006  RH  015%=      5-min Rain = 0
KGU1 122346Z 24004KT 28/00 A3011 RMK A01 T02830001  RH  016%=      5-min Rain = 0
KGU1 122347Z 22008KT 28/M00 A3011 RMK A01 T02831003  RH  016%=      5-min Rain = 0
KGU1 122348Z 24007KT 28/M01 A3011 RMK A01 T02831006  RH  015%=      5-min Rain = 0
KGU1 122349Z 23009KT 28/M01 A3011 RMK A01 T02821010  RH  015%=      5-min Rain = 0
KGU1 122350Z 22007KT 28/M01 A3011 RMK A01 T02821010  RH  015%=      5-min Rain = 0
KGU1 122351Z 22008KT 28/M01 A3011 RMK A01 T02811007  RH  015%=      5-min Rain = 0
KGU1 122352Z 22007KT 28/M01 A3011 RMK A01 T02811008  RH  015%=      5-min Rain = 0
KGU1 122353Z 22006KT 28/M01 A3011 RMK A01 T02811007  RH  015%=      5-min Rain = 0
KGU1 122354Z 23006KT 28/M01 A3011 RMK A01 T02811009  RH  015%=      5-min Rain = 0
KGU1 122355Z 21006KT 28/M01 A3011 RMK A01 T02801010  RH  015%=      5-min Rain = 0
KGU1 122356Z 22005KT 28/M01 A3011 RMK A01 T02801011  RH  015%=      5-min Rain = 0
KGU1 122357Z 21004KT 28/M01 A3011 RMK A01 T02801006  RH  016%=      5-min Rain = 0
KGU1 122358Z 21005KT 28/M01 A3011 RMK A01 T02801010  RH  015%=      5-min Rain = 0
KGU1 122359Z 21005KT 28/M01 A3011 RMK A01 T02801012  RH  015%=      5-min Rain = 0
KGU1 130000Z 21005KT 28/M01 A3011 RMK A01 T02801011  RH  015%=      5-min Rain = 0
KGU1 130001Z 24007KT 28/M01 A3011 RMK A01 T02801006  RH  016%=      5-min Rain = 0
KGU1 130002Z 26007KT 28/M01 A3011 RMK A01 T02801011  RH  015%=      5-min Rain = 0
KGU1 130003Z 24007KT 28/M01 A3011 RMK A01 T02801011  RH  015%=      5-min Rain = 0
KGU1 130004Z 23008KT 28/M01 A3011 RMK A01 T02791014  RH  015%=      5-min Rain = 0
KGU1 130005Z 23007KT 28/M02 A3011 RMK A01 T02791015  RH  015%=      5-min Rain = 0
KGU1 130006Z 23008KT 28/M02 A3011 RMK A01 T02781017  RH  015%=      5-min Rain = 0
KGU1 130007Z 23006KT 28/M02 A3011 RMK A01 T02781015  RH  015%=      5-min Rain = 0
KGU1 130008Z 23007KT 28/M02 A3011 RMK A01 T02781016  RH  015%=      5-min Rain = 0
KGU1 130009Z 23006KT 28/M02 A3011 RMK A01 T02771016  RH  015%=      5-min Rain = 0
KGU1 130010Z 24006KT 28/M01 A3011 RMK A01 T02771014  RH  015%=      5-min Rain = 0
KGU1 130011Z 24006KT 28/M01 A3011 RMK A01 T02781011  RH  015%=      5-min Rain = 0
KGU1 130012Z 23006KT 28/M01 A3011 RMK A01 T02781010  RH  015%=      5-min Rain = 0
KGU1 130013Z 24005KT 28/M01 A3011 RMK A01 T02771011  RH  015%=      5-min Rain = 0
KGU1 130014Z 24004KT 28/M01 A3011 RMK A01 T02771011  RH  015%=      5-min Rain = 0
KGU1 130015Z 25005KT 28/M01 A3011 RMK A01 T02771013  RH  015%=      5-min Rain = 0
KGU1 130016Z 25004KT 28/M01 A3011 RMK A01 T02761012  RH  015%=      5-min Rain = 0
KGU1 130017Z 24006KT 28/M01 A3011 RMK A01 T02751014  RH  015%=      5-min Rain = 0
KGU1 130018Z 25006KT 27/M02 A3011 RMK A01 T02741017  RH  015%=      5-min Rain = 0
KGU1 130019Z 24005KT 27/M02 A3011 RMK A01 T02721017  RH  015%=      5-min Rain = 0
KGU1 130020Z 24004KT 27/M02 A3011 RMK A01 T02721017  RH  015%=      5-min Rain = 0
KGU1 130021Z 21004KT 27/M02 A3011 RMK A01 T02711016  RH  015%=      5-min Rain = 0
KGU1 130022Z 23003KT 27/M02 A3011 RMK A01 T02691015  RH  016%=      5-min Rain = 0
KGU1 130023Z 25005KT 27/M01 A3011 RMK A01 T02681014  RH  016%=      5-min Rain = 0
KGU1 130024Z 26006KT 27/M01 A3011 RMK A01 T02671010  RH  016%=      5-min Rain = 0
KGU1 130025Z 25005KT 27/M01 A3011 RMK A01 T02661014  RH  016%=      5-min Rain = 0
KGU1 130026Z 25005KT 27/M01 A3011 RMK A01 T02651014  RH  016%=      5-min Rain = 0
KGU1 130027Z 26004KT 27/M01 A3011 RMK A01 T02651011  RH  016%=      5-min Rain = 0
KGU1 130028Z 27004KT 26/M00 A3011 RMK A01 T02631001  RH  018%=      5-min Rain = 0
KGU1 130029Z 28004KT 26/M00 A3011 RMK A01 T02601003  RH  018%=      5-min Rain = 0
KGU1 130030Z 28005KT 26/M00 A3011 RMK A01 T02581001  RH  018%=      5-min Rain = 0
KGU1 130031Z 27004KT 26/00 A3011 RMK A01 T025600-0  RH  019%=      5-min Rain = 0
KGU1 130032Z 27005KT 25/00 A3011 RMK A01 T02540001  RH  019%=      5-min Rain = 0
KGU1 130033Z 29005KT 25/00 A3011 RMK A01 T02520004  RH  020%=      5-min Rain = 0
KGU1 130034Z 29005KT 25/01 A3011 RMK A01 T02500006  RH  020%=      5-min Rain = 0
KGU1 130035Z 28005KT 25/01 A3011 RMK A01 T02490009  RH  021%=      5-min Rain = 0
KGU1 130036Z 29006KT 25/01 A3011 RMK A01 T02480009  RH  021%=      5-min Rain = 0
KGU1 130037Z 29006KT 25/01 A3011 RMK A01 T02470011  RH  021%=      5-min Rain = 0
KGU1 130038Z 29005KT 25/01 A3011 RMK A01 T02460011  RH  022%=      5-min Rain = 0
KGU1 130039Z 29005KT 25/01 A3011 RMK A01 T02460011  RH  022%=      5-min Rain = 0
KGU1 130040Z 29006KT 24/01 A3011 RMK A01 T02440012  RH  022%=      5-min Rain = 0
KGU1 130041Z 29006KT 24/01 A3011 RMK A01 T02440008  RH  022%=      5-min Rain = 0
KGU1 130042Z 29006KT 24/01 A3011 RMK A01 T02430009  RH  022%=      5-min Rain = 0
KGU1 130043Z 28005KT 24/01 A3011 RMK A01 T02430009  RH  022%=      5-min Rain = 0
KGU1 130044Z 29006KT 24/01 A3011 RMK A01 T02430011  RH  022%=      5-min Rain = 0
KGU1 130045Z 29006KT 24/01 A3011 RMK A01 T02420010  RH  022%=      5-min Rain = 0
KGU1 130046Z 29006KT 24/01 A3011 RMK A01 T02410011  RH  022%=      5-min Rain = 0
KGU1 130047Z 29006KT 24/01 A3011 RMK A01 T02410010  RH  022%=      5-min Rain = 0
KGU1 130048Z 29006KT 24/01 A3011 RMK A01 T02400011  RH  022%=      5-min Rain = 0
KGU1 130049Z 28006KT 24/01 A3011 RMK A01 T02400012  RH  023%=      5-min Rain = 0
KGU1 130050Z 29006KT 24/01 A3011 RMK A01 T02390011  RH  023%=      5-min Rain = 0
KGU1 130051Z 29006KT 24/01 A3011 RMK A01 T02380010  RH  023%=      5-min Rain = 0
KGU1 130052Z 29007KT 24/01 A3011 RMK A01 T02380010  RH  022%=      5-min Rain = 0
KGU1 130053Z 29006KT 24/01 A3011 RMK A01 T02380009  RH  022%=      5-min Rain = 0
KGU1 130054Z 29007KT 24/01 A3011 RMK A01 T02380009  RH  022%=      5-min Rain = 0
KGU1 130055Z 29006KT 24/01 A3011 RMK A01 T02370012  RH  023%=      5-min Rain = 0
KGU1 130056Z 28006KT 24/01 A3011 RMK A01 T02360013  RH  023%=      5-min Rain = 0
KGU1 130057Z 28006KT 24/01 A3011 RMK A01 T02350012  RH  023%=      5-min Rain = 0
KGU1 130058Z 29007KT 24/01 A3011 RMK A01 T02350011  RH  023%=      5-min Rain = 0
KGU1 130059Z 29008KT 24/01 A3011 RMK A01 T02350010  RH  023%=      5-min Rain = 0
KGU1 130100Z 29008KT 24/01 A3011 RMK A01 T02350011  RH  023%=      5-min Rain = 0
KGU1 130101Z 29008KT 24/01 A3011 RMK A01 T02350011  RH  023%=      5-min Rain = 0
KGU1 130102Z 30008KT 23/01 A3011 RMK A01 T02340011  RH  023%=      5-min Rain = 0
KGU1 130103Z 30008KT 23/01 A3011 RMK A01 T02340010  RH  023%=      5-min Rain = 0
KGU1 130104Z 30008KT 24/01 A3011 RMK A01 T02350009  RH  023%=      5-min Rain = 0
KGU1 130105Z 29008KT 24/01 A3011 RMK A01 T02350009  RH  023%=      5-min Rain = 0
KGU1 130106Z 29008KT 23/01 A3011 RMK A01 T02340009  RH  023%=      5-min Rain = 0
KGU1 130107Z 29008KT 24/01 A3011 RMK A01 T02350008  RH  023%=      5-min Rain = 0
KGU1 130108Z 30008KT 23/01 A3011 RMK A01 T02340008  RH  023%=      5-min Rain = 0
KGU1 130109Z 30008KT 23/01 A301 RMK A01 T02340008  RH  023%=      5-min Rain = 0
KGU1 130110Z 30007KT 23/01 A301 RMK A01 T02340009  RH  023%=      5-min Rain = 0
KGU1 130111Z 30008KT 23/01 A301 RMK A01 T02330010  RH  023%=      5-min Rain = 0
KGU1 130112Z 30008KT 23/01 A301 RMK A01 T02320010  RH  023%=      5-min Rain = 0
KGU1 130113Z 30009KT 23/01 A301 RMK A01 T02320009  RH  023%=      5-min Rain = 0
KGU1 130114Z 30009KT 23/01 A301 RMK A01 T02330008  RH  023%=      5-min Rain = 0
KGU1 130115Z 30009KT 23/01 A301 RMK A01 T02330009  RH  023%=      5-min Rain = 0
KGU1 130116Z 30008KT 23/01 A301 RMK A01 T02340009  RH  023%=      5-min Rain = 0
KGU1 130117Z 30009KT 23/01 A301 RMK A01 T02330009  RH  023%=      5-min Rain = 0
KGU1 130118Z 30009KT 23/01 A301 RMK A01 T02330009  RH  023%=      5-min Rain = 0
KGU1 130119Z 30009KT 23/01 A301 RMK A01 T02340008  RH  023%=      5-min Rain = 0
KGU1 130120Z 30008KT 23/01 A301 RMK A01 T02340008  RH  023%=      5-min Rain = 0
KGU1 130121Z 30008KT 23/01 A301 RMK A01 T02340008  RH  023%=      5-min Rain = 0
KGU1 130122Z 30009KT 23/01 A301 RMK A01 T02340008  RH  023%=      5-min Rain = 0
KGU1 130123Z 30008KT 23/01 A301 RMK A01 T02340008  RH  023%=      5-min Rain = 0
KGU1 130124Z 30008KT 23/01 A301 RMK A01 T02330009  RH  023%=      5-min Rain = 0
KGU1 130125Z 30007KT 23/01 A301 RMK A01 T02330009  RH  023%=      5-min Rain = 0
KGU1 130126Z 30008KT 23/01 A301 RMK A01 T02330008  RH  023%=      5-min Rain = 0
KGU1 130127Z 30008KT 23/01 A301 RMK A01 T02330008  RH  023%=      5-min Rain = 0
KGU1 130128Z 30009KT 23/01 A301 RMK A01 T02330008  RH  023%=      5-min Rain = 0
KGU1 130129Z 30009KT 23/01 A301 RMK A01 T02330007  RH  023%=      5-min Rain = 0
KGU1 130130Z 30009KT 23/01 A301 RMK A01 T02340007  RH  023%=      5-min Rain = 0
KGU1 130131Z 30009KT 23/01 A301 RMK A01 T02340008  RH  023%=      5-min Rain = 0
KGU1 130132Z 29009KT 23/01 A301 RMK A01 T02340008  RH  023%=      5-min Rain = 0
KGU1 130133Z 30008KT 23/01 A301 RMK A01 T02330009  RH  023%=      5-min Rain = 0
KGU1 130134Z 30009KT 23/01 A301 RMK A01 T02330008  RH  023%=      5-min Rain = 0
KGU1 130135Z 30009KT 23/01 A301 RMK A01 T02330008  RH  023%=      5-min Rain = 0
KGU1 130136Z 30009KT 23/01 A301 RMK A01 T02330008  RH  023%=      5-min Rain = 0
KGU1 130137Z 30010KT 23/01 A301 RMK A01 T02340007  RH  023%=      5-min Rain = 0
KGU1 130138Z 30009KT 23/01 A301 RMK A01 T02340007  RH  023%=      5-min Rain = 0
KGU1 130139Z 30009KT 24/01 A301 RMK A01 T02350006  RH  022%=      5-min Rain = 0
KGU1 130140Z 30009KT 24/01 A301 RMK A01 T02360006  RH  022%=      5-min Rain = 0
KGU1 130141Z 30009KT 24/01 A301 RMK A01 T02360007  RH  022%=      5-min Rain = 0
KGU1 130142Z 30009KT 24/01 A3011 RMK A01 T02360008  RH  022%=      5-min Rain = 0
KGU1 130143Z 30010KT 24/01 A3011 RMK A01 T02350007  RH  022%=      5-min Rain = 0
KGU1 130144Z 30009KT 24/01 A3011 RMK A01 T02360007  RH  022%=      5-min Rain = 0
KGU1 130145Z 30009KT 24/01 A3011 RMK A01 T02350007  RH  022%=      5-min Rain = 0
KGU1 130146Z 30010KT 24/01 A3011 RMK A01 T02350007  RH  022%=      5-min Rain = 0
KGU1 130147Z 30010KT 24/01 A3011 RMK A01 T02350007  RH  022%=      5-min Rain = 0
KGU1 130148Z 30009KT 24/01 A3011 RMK A01 T02350007  RH  022%=      5-min Rain = 0
KGU1 130149Z 30010KT 24/01 A3011 RMK A01 T02360006  RH  022%=      5-min Rain = 0
KGU1 130150Z 30010KT 24/01 A3011 RMK A01 T02360006  RH  022%=      5-min Rain = 0
KGU1 130151Z 30010KT 24/01 A3011 RMK A01 T02370005  RH  022%=      5-min Rain = 0
KGU1 130152Z 30009KT 24/01 A3011 RMK A01 T02370005  RH  022%=      5-min Rain = 0
KGU1 130153Z 30009KT 24/01 A3011 RMK A01 T02370005  RH  022%=      5-min Rain = 0
KGU1 130154Z 30009KT 24/01 A3011 RMK A01 T02370005  RH  022%=      5-min Rain = 0
KGU1 130155Z 30009KT 24/01 A3011 RMK A01 T02370006  RH  022%=      5-min Rain = 0
KGU1 130156Z 30009KT 24/01 A3011 RMK A01 T02360007  RH  022%=      5-min Rain = 0
KGU1 130157Z 30009KT 24/01 A3011 RMK A01 T02360007  RH  022%=      5-min Rain = 0
KGU1 130158Z 30009KT 24/01 A3011 RMK A01 T02350007  RH  022%=      5-min Rain = 0
KGU1 130159Z 30010KT 24/01 A3011 RMK A01 T02350007  RH  022%=      5-min Rain = 0
KGU1 130200Z 30010KT 24/01 A3011 RMK A01 T02350007  RH  022%=      5-min Rain = 0
KGU1 130201Z 29010KT 24/01 A3011 RMK A01 T02350007  RH  023%=      5-min Rain = 0
KGU1 130202Z 29010KT 24/01 A3011 RMK A01 T02350007  RH  023%=      5-min Rain = 0
KGU1 130203Z 29010KT 24/01 A3011 RMK A01 T02350007  RH  022%=      5-min Rain = 0
KGU1 130204Z 29009KT 24/01 A3011 RMK A01 T02350007  RH  022%=      5-min Rain = 0
KGU1 130205Z 29009KT 24/01 A3011 RMK A01 T02350007  RH  022%=      5-min Rain = 0
KGU1 130206Z 29009KT 23/01 A3011 RMK A01 T02340007  RH  023%=      5-min Rain = 0
KGU1 130207Z 29009KT 23/01 A3011 RMK A01 T02340008  RH  023%=      5-min Rain = 0
KGU1 130208Z 29009KT 23/01 A3011 RMK A01 T02330008  RH  023%=      5-min Rain = 0
KGU1 130209Z 29009KT 23/01 A3011 RMK A01 T02330008  RH  023%=      5-min Rain = 0
KGU1 130210Z 29009KT 23/01 A3011 RMK A01 T02330009  RH  023%=      5-min Rain = 0
KGU1 130211Z 29009KT 23/01 A3011 RMK A01 T02320009  RH  023%=      5-min Rain = 0
KGU1 130212Z 29009KT 23/01 A3011 RMK A01 T02320009  RH  023%=      5-min Rain = 0
KGU1 130213Z 29009KT 23/01 A3011 RMK A01 T02320009  RH  023%=      5-min Rain = 0
KGU1 130214Z 29009KT 23/01 A3011 RMK A01 T02320009  RH  023%=      5-min Rain = 0
KGU1 130215Z 29008KT 23/01 A3011 RMK A01 T02310010  RH  023%=      5-min Rain = 0
KGU1 130216Z 29007KT 23/01 A3011 RMK A01 T02310011  RH  024%=      5-min Rain = 0
KGU1 130217Z 29006KT 23/01 A3011 RMK A01 T02290011  RH  024%=      5-min Rain = 0
KGU1 130218Z 28006KT 23/01 A3011 RMK A01 T02280012  RH  024%=      5-min Rain = 0
KGU1 130219Z 29006KT 23/01 A3011 RMK A01 T02280012  RH  024%=      5-min Rain = 0
KGU1 130220Z 29006KT 23/01 A3011 RMK A01 T02270013  RH  025%=      5-min Rain = 0
KGU1 130221Z 28006KT 23/01 A3011 RMK A01 T02260013  RH  025%=      5-min Rain = 0
KGU1 130222Z 28007KT 23/01 A3011 RMK A01 T02250013  RH  025%=      5-min Rain = 0
KGU1 130223Z 28009KT 23/01 A3011 RMK A01 T02250014  RH  025%=      5-min Rain = 0
KGU1 130224Z 28009KT 23/01 A3011 RMK A01 T02260013  RH  025%=      5-min Rain = 0
KGU1 130225Z 29009KT 23/01 A3011 RMK A01 T02280014  RH  025%=      5-min Rain = 0
KGU1 130226Z 29008KT 23/01 A3012 RMK A01 T02280014  RH  025%=      5-min Rain = 0
KGU1 130227Z 29008KT 23/02 A3012 RMK A01 T02290015  RH  025%=      5-min Rain = 0
KGU1 130228Z 29009KT 23/02 A3012 RMK A01 T02290015  RH  025%=      5-min Rain = 0
KGU1 130229Z 29008KT 23/02 A3012 RMK A01 T02280016  RH  025%=      5-min Rain = 0
KGU1 130230Z 29008KT 23/02 A3012 RMK A01 T02280017  RH  025%=      5-min Rain = 0
KGU1 130231Z 30008KT 23/02 A3012 RMK A01 T02270017  RH  025%=      5-min Rain = 0
KGU1 130232Z 30008KT 23/02 A3012 RMK A01 T02260019  RH  026%=      5-min Rain = 0
KGU1 130233Z 29007KT 23/02 A3012 RMK A01 T02250020  RH  026%=      5-min Rain = 0
KGU1 130234Z 28007KT 22/02 A3012 RMK A01 T02240020  RH  026%=      5-min Rain = 0
KGU1 130235Z 27008KT 22/02 A3012 RMK A01 T02230018  RH  026%=      5-min Rain = 0
KGU1 130236Z 27007KT 22/02 A3012 RMK A01 T02240018  RH  026%=      5-min Rain = 0
KGU1 130237Z 28006KT 23/02 A3012 RMK A01 T02250018  RH  026%=      5-min Rain = 0
KGU1 130238Z 28007KT 23/02 A3012 RMK A01 T02250018  RH  026%=      5-min Rain = 0
KGU1 130239Z 28006KT 22/02 A3012 RMK A01 T02240019  RH  026%=      5-min Rain = 0
KGU1 130240Z 28007KT 22/02 A3012 RMK A01 T02240019  RH  026%=      5-min Rain = 0
KGU1 130241Z 28008KT 22/02 A3012 RMK A01 T02230020  RH  026%=      5-min Rain = 0
KGU1 130242Z 28008KT 22/02 A3012 RMK A01 T02230020  RH  027%=      5-min Rain = 0
KGU1 130243Z 29008KT 22/02 A3013 RMK A01 T02230020  RH  027%=      5-min Rain = 0
KGU1 130244Z 29009KT 22/02 A3013 RMK A01 T02220021  RH  027%=      5-min Rain = 0
KGU1 130245Z 29008KT 22/02 A3013 RMK A01 T02220022  RH  027%=      5-min Rain = 0
KGU1 130246Z 29008KT 22/02 A3013 RMK A01 T02210022  RH  027%=      5-min Rain = 0
KGU1 130247Z 28008KT 22/02 A3013 RMK A01 T02210022  RH  027%=      5-min Rain = 0
KGU1 130248Z 28007KT 22/02 A3013 RMK A01 T02210023  RH  027%=      5-min Rain = 0
KGU1 130249Z 27006KT 22/02 A3013 RMK A01 T02200023  RH  028%=      5-min Rain = 0
KGU1 130250Z 26005KT 22/02 A3013 RMK A01 T02180023  RH  028%=      5-min Rain = 0
KGU1 130251Z 26005KT 22/02 A3013 RMK A01 T02170024  RH  028%=      5-min Rain = 0
KGU1 130252Z 26005KT 22/02 A3013 RMK A01 T02160024  RH  029%=      5-min Rain = 0
KGU1 130253Z 26005KT 22/02 A3013 RMK A01 T02160024  RH  028%=      5-min Rain = 0
KGU1 130254Z 26005KT 22/02 A3013 RMK A01 T02160024  RH  028%=      5-min Rain = 0
KGU1 130255Z 27006KT 22/02 A3013 RMK A01 T02160023  RH  028%=      5-min Rain = 0
KGU1 130256Z 29007KT 22/02 A3013 RMK A01 T02160023  RH  028%=      5-min Rain = 0
KGU1 130257Z 29007KT 22/02 A3013 RMK A01 T02160024  RH  028%=      5-min Rain = 0
KGU1 130258Z 29007KT 22/03 A3013 RMK A01 T02160025  RH  029%=      5-min Rain = 0
KGU1 130259Z 29007KT 22/03 A3013 RMK A01 T02160025  RH  029%=      5-min Rain = 0
KGU1 130300Z 29007KT 22/03 A3013 RMK A01 T02160026  RH  029%=      5-min Rain = 0
KGU1 130301Z 29007KT 22/03 A3013 RMK A01 T02150026  RH  029%=      5-min Rain = 0
KGU1 130302Z 29007KT 22/03 A3013 RMK A01 T02160026  RH  029%=      5-min Rain = 0
KGU1 130303Z 29007KT 22/03 A3013 RMK A01 T02160026  RH  029%=      5-min Rain = 0
KGU1 130304Z 29007KT 22/03 A3013 RMK A01 T02160026  RH  029%=      5-min Rain = 0
KGU1 130305Z 28006KT 22/03 A3013 RMK A01 T02170026  RH  029%=      5-min Rain = 0
KGU1 130306Z 29006KT 22/03 A3013 RMK A01 T02180026  RH  028%=      5-min Rain = 0
KGU1 130307Z 28006KT 22/03 A3013 RMK A01 T02190026  RH  028%=      5-min Rain = 0
KGU1 130308Z 28006KT 22/03 A3013 RMK A01 T02190027  RH  029%=      5-min Rain = 0
KGU1 130309Z 28006KT 22/03 A3013 RMK A01 T02180027  RH  029%=      5-min Rain = 0
KGU1 130310Z 28007KT 22/03 A3013 RMK A01 T02170027  RH  029%=      5-min Rain = 0
KGU1 130311Z 28006KT 22/03 A3013 RMK A01 T02170027  RH  029%=      5-min Rain = 0
KGU1 130312Z 28006KT 22/03 A3013 RMK A01 T02170027  RH  029%=      5-min Rain = 0
KGU1 130313Z 28007KT 22/03 A3013 RMK A01 T02160027  RH  029%=      5-min Rain = 0
KGU1 130314Z 29007KT 22/03 A3013 RMK A01 T02160027  RH  029%=      5-min Rain = 0
KGU1 130315Z 29007KT 22/03 A3013 RMK A01 T02160027  RH  029%=      5-min Rain = 0
KGU1 130316Z 29006KT 22/03 A3013 RMK A01 T02170027  RH  029%=      5-min Rain = 0
KGU1 130317Z 29006KT 22/03 A3013 RMK A01 T02190026  RH  028%=      5-min Rain = 0
KGU1 130318Z 28005KT 22/03 A3013 RMK A01 T02200025  RH  028%=      5-min Rain = 0
KGU1 130319Z 27005KT 22/03 A3013 RMK A01 T02210026  RH  028%=      5-min Rain = 0
KGU1 130320Z 27005KT 22/03 A3013 RMK A01 T02210027  RH  028%=      5-min Rain = 0
KGU1 130321Z 27005KT 22/03 A3013 RMK A01 T02200026  RH  028%=      5-min Rain = 0
KGU1 130322Z 27005KT 22/03 A3013 RMK A01 T02210026  RH  028%=      5-min Rain = 0
KGU1 130323Z 28006KT 22/03 A3013 RMK A01 T02210027  RH  028%=      5-min Rain = 0
KGU1 130324Z 28006KT 22/03 A3013 RMK A01 T02200027  RH  028%=      5-min Rain = 0
KGU1 130325Z 28006KT 22/03 A3013 RMK A01 T02200028  RH  029%=      5-min Rain = 0
KGU1 130326Z 25004KT 22/03 A3013 RMK A01 T02190027  RH  029%=      5-min Rain = 0
KGU1 130327Z 26005KT 22/03 A3013 RMK A01 T02190026  RH  028%=      5-min Rain = 0
KGU1 130328Z 27005KT 22/02 A3013 RMK A01 T02200024  RH  028%=      5-min Rain = 0
KGU1 130329Z 28005KT 22/02 A3013 RMK A01 T02220023  RH  027%=      5-min Rain = 0
KGU1 130330Z 29005KT 22/02 A3013 RMK A01 T02240022  RH  027%=      5-min Rain = 0
KGU1 130331Z 29004KT 23/03 A3013 RMK A01 T02250025  RH  027%=      5-min Rain = 0
KGU1 130332Z 29005KT 22/03 A3013 RMK A01 T02230026  RH  028%=      5-min Rain = 0
KGU1 130333Z 29004KT 22/03 A3013 RMK A01 T02230025  RH  027%=      5-min Rain = 0
KGU1 130334Z 29005KT 22/02 A3013 RMK A01 T02240023  RH  027%=      5-min Rain = 0
KGU1 130335Z 29005KT 23/02 A3013 RMK A01 T02260023  RH  026%=      5-min Rain = 0
KGU1 130336Z 29006KT 23/02 A3013 RMK A01 T02270023  RH  026%=      5-min Rain = 0
KGU1 130337Z 28004KT 23/02 A3013 RMK A01 T02280022  RH  026%=      5-min Rain = 0
KGU1 130338Z 29005KT 23/02 A3013 RMK A01 T02290023  RH  026%=      5-min Rain = 0
KGU1 130339Z 28005KT 23/03 A3013 RMK A01 T02290025  RH  027%=      5-min Rain = 0
KGU1 130340Z 29006KT 23/02 A3013 RMK A01 T02280023  RH  026%=      5-min Rain = 0
KGU1 130341Z 28004KT 23/02 A3013 RMK A01 T02290024  RH  026%=      5-min Rain = 0
KGU1 130342Z 29004KT 23/03 A3013 RMK A01 T02290025  RH  026%=      5-min Rain = 0
KGU1 130343Z 28005KT 23/03 A3013 RMK A01 T02280026  RH  027%=      5-min Rain = 0
KGU1 130344Z 29005KT 23/02 A3013 RMK A01 T02270024  RH  027%=      5-min Rain = 0
KGU1 130345Z 29005KT 23/02 A3013 RMK A01 T02280020  RH  026%=      5-min Rain = 0
KGU1 130346Z 29004KT 23/01 A3013 RMK A01 T02340013  RH  024%=      5-min Rain = 0
KGU1 130347Z 29003KT 24/02 A3013 RMK A01 T02370017  RH  024%=      5-min Rain = 0
KGU1 130348Z 29003KT 24/02 A3013 RMK A01 T02380019  RH  024%=      5-min Rain = 0
KGU1 130349Z 30004KT 24/02 A3013 RMK A01 T02370020  RH  024%=      5-min Rain = 0
KGU1 130350Z 29005KT 24/02 A3013 RMK A01 T02350022  RH  025%=      5-min Rain = 0
KGU1 130351Z 30005KT 23/02 A3013 RMK A01 T02340022  RH  025%=      5-min Rain = 0
KGU1 130352Z 29004KT 23/02 A3013 RMK A01 T02320024  RH  026%=      5-min Rain = 0
KGU1 130353Z 29005KT 23/03 A3013 RMK A01 T02300025  RH  026%=      5-min Rain = 0
KGU1 130354Z 29004KT 23/02 A3013 RMK A01 T02280024  RH  027%=      5-min Rain = 0
KGU1 130355Z 28004KT 23/02 A3013 RMK A01 T02280022  RH  026%=      5-min Rain = 0
KGU1 130356Z 28004KT 23/02 A3013 RMK A01 T02300021  RH  026%=      5-min Rain = 0
KGU1 130357Z 28004KT 23/02 A3013 RMK A01 T02300022  RH  026%=      5-min Rain = 0
KGU1 130358Z 29006KT 23/02 A3013 RMK A01 T02290022  RH  026%=      5-min Rain = 0
KGU1 130359Z 29007KT 23/02 A3013 RMK A01 T02290022  RH  026%=      5-min Rain = 0
KGU1 130400Z 29007KT 23/02 A3013 RMK A01 T02280022  RH  026%=      5-min Rain = 0
KGU1 130401Z 29006KT 23/02 A3013 RMK A01 T02270021  RH  026%=      5-min Rain = 0
KGU1 130402Z 29005KT 23/02 A3013 RMK A01 T02290020  RH  026%=      5-min Rain = 0
KGU1 130403Z 30005KT 23/02 A3013 RMK A01 T02290019  RH  026%=      5-min Rain = 0
KGU1 130404Z 30004KT 23/02 A3013 RMK A01 T02290020  RH  026%=      5-min Rain = 0
KGU1 130405Z 28004KT 23/02 A3013 RMK A01 T02280020  RH  026%=      5-min Rain = 0
KGU1 130406Z 28004KT 23/02 A3013 RMK A01 T02280017  RH  025%=      5-min Rain = 0
KGU1 130407Z 26002KT 23/01 A3013 RMK A01 T02320012  RH  024%=      5-min Rain = 0
KGU1 130408Z 27002KT 23/01 A3013 RMK A01 T02340013  RH  024%=      5-min Rain = 0
KGU1 130409Z 27001KT 24/01 A3013 RMK A01 T02360011  RH  023%=      5-min Rain = 0
KGU1 130410Z 26004KT 24/01 A3013 RMK A01 T02370012  RH  023%=      5-min Rain = 0
KGU1 130411Z 26003KT 24/01 A3013 RMK A01 T02380011  RH  023%=      5-min Rain = 0
KGU1 130412Z 28003KT 24/01 A3013 RMK A01 T02390012  RH  023%=      5-min Rain = 0
KGU1 130413Z 28003KT 24/01 A3013 RMK A01 T02380014  RH  023%=      5-min Rain = 0
KGU1 130414Z 28002KT 24/01 A3013 RMK A01 T02360014  RH  024%=      5-min Rain = 0
KGU1 130415Z 26002KT 23/02 A3013 RMK A01 T02340018  RH  024%=      5-min Rain = 0
KGU1 130416Z 25002KT 23/01 A3013 RMK A01 T02320011  RH  023%=      5-min Rain = 0
KGU1 130417Z 26002KT 23/01 A3013 RMK A01 T02320011  RH  024%=      5-min Rain = 0
KGU1 130418Z 27001KT 23/01 A3013 RMK A01 T02320013  RH  024%=      5-min Rain = 0
KGU1 130419Z 27001KT 23/01 A3013 RMK A01 T02300014  RH  024%=      5-min Rain = 0
KGU1 130420Z 25002KT 23/01 A3013 RMK A01 T02280012  RH  024%=      5-min Rain = 0
KGU1 130421Z 23003KT 23/01 A3013 RMK A01 T02270008  RH  024%=      5-min Rain = 0
KGU1 130422Z 24004KT 23/01 A3013 RMK A01 T02270009  RH  024%=      5-min Rain = 0
KGU1 130423Z 23005KT 23/01 A3013 RMK A01 T02260008  RH  024%=      5-min Rain = 0
KGU1 130424Z 23005KT 23/01 A3013 RMK A01 T02260005  RH  023%=      5-min Rain = 0
KGU1 130425Z 24005KT 23/00 A3013 RMK A01 T02270001  RH  023%=      5-min Rain = 0
KGU1 130426Z 24005KT 23/00 A3013 RMK A01 T02280000  RH  022%=      5-min Rain = 0
KGU1 130427Z 24005KT 23/M00 A3013 RMK A01 T02311001  RH  022%=      5-min Rain = 0
KGU1 130428Z 24007KT 23/M00 A3013 RMK A01 T02341003  RH  021%=      5-min Rain = 0
KGU1 130429Z 23006KT 24/M00 A3013 RMK A01 T02361003  RH  021%=      5-min Rain = 0
KGU1 130430Z 23006KT 24/M00 A3013 RMK A01 T02381002  RH  021%=      5-min Rain = 0
KGU1 130431Z 23007KT 24/M01 A3013 RMK A01 T02391005  RH  020%=      5-min Rain = 0
KGU1 130432Z 24006KT 24/M01 A3013 RMK A01 T02401009  RH  019%=      5-min Rain = 0
KGU1 130433Z 23006KT 24/M01 A3013 RMK A01 T02411011  RH  019%=      5-min Rain = 0
KGU1 130434Z 23007KT 24/M01 A3013 RMK A01 T02411012  RH  019%=      5-min Rain = 0
KGU1 130435Z 24007KT 24/M01 A3013 RMK A01 T02421014  RH  018%=      5-min Rain = 0
KGU1 130436Z 24007KT 24/M01 A3013 RMK A01 T02431014  RH  018%=      5-min Rain = 0
KGU1 130437Z 24007KT 24/M02 A3013 RMK A01 T02431015  RH  018%=      5-min Rain = 0
KGU1 130438Z 25007KT 24/M01 A3013 RMK A01 T02441013  RH  018%=      5-min Rain = 0
KGU1 130439Z 25007KT 24/M01 A3013 RMK A01 T02431011  RH  019%=      5-min Rain = 0
KGU1 130440Z 24007KT 24/M01 A3013 RMK A01 T02431011  RH  019%=      5-min Rain = 0
KGU1 130441Z 24008KT 24/M01 A3013 RMK A01 T02421012  RH  019%=      5-min Rain = 0
KGU1 130442Z 24006KT 24/M01 A3013 RMK A01 T02431011  RH  019%=      5-min Rain = 0
KGU1 130443Z 24006KT 24/M01 A3013 RMK A01 T02421011  RH  019%=      5-min Rain = 0
KGU1 130444Z 24006KT 24/M01 A3013 RMK A01 T02421012  RH  019%=      5-min Rain = 0
KGU1 130445Z 23004KT 24/M01 A3013 RMK A01 T02411011  RH  019%=      5-min Rain = 0
KGU1 130446Z 23004KT 24/M01 A3013 RMK A01 T02401010  RH  019%=      5-min Rain = 0
KGU1 130447Z 23004KT 24/M01 A3013 RMK A01 T02391010  RH  019%=      5-min Rain = 0
KGU1 130448Z 23004KT 24/M01 A3013 RMK A01 T02381010  RH  019%=      5-min Rain = 0
KGU1 130449Z 23004KT 24/M01 A3013 RMK A01 T02371010  RH  020%=      5-min Rain = 0
KGU1 130450Z 23003KT 24/M01 A3013 RMK A01 T02371010  RH  020%=      5-min Rain = 0
KGU1 130451Z 24004KT 24/M01 A3014 RMK A01 T02361010  RH  020%=      5-min Rain = 0
KGU1 130452Z 24005KT 24/M01 A3014 RMK A01 T02361010  RH  020%=      5-min Rain = 0
KGU1 130453Z 23005KT 24/M01 A3013 RMK A01 T02361010  RH  020%=      5-min Rain = 0
KGU1 130454Z 23005KT 24/M01 A3014 RMK A01 T02361010  RH  020%=      5-min Rain = 0
KGU1 130455Z 24006KT 24/M01 A3013 RMK A01 T02351012  RH  020%=      5-min Rain = 0
KGU1 130456Z 24007KT 24/M01 A3013 RMK A01 T02371014  RH  019%=      5-min Rain = 0
KGU1 130457Z 24007KT 24/M02 A3013 RMK A01 T02381016  RH  019%=      5-min Rain = 0
KGU1 130458Z 24007KT 24/M02 A3013 RMK A01 T02391017  RH  018%=      5-min Rain = 0
KGU1 130459Z 25008KT 24/M02 A3013 RMK A01 T02411018  RH  018%=      5-min Rain = 0

Page generated in 0.152 seconds.